KLM195 EHAM-SMJP
Flight info
| Callsign | KLM195 |
|---|---|
| Flight time | 8h 35m |
| Altitude | 36000 |
| Route | IDRID L980 LOGAN DCT SAM N19 ADKIK DCT JOZMA DCT GAPLI/M082F360 DCT OMOKO DCT 45N020W 38N030W/M082F380 33N035W 28N040W 24N045W/M082F400 DCT NEZBT/N0471F400 DCT 16N050W 0927N05300W 0730N05400W DCT TODOL |
| Aircraft | B772/H-SDE2E3FGHIJ5LORVWXY/LB1D1 |
Departure
| Time | 2026-05-06 13:53 |
|---|---|
| Airport | Amsterdam Airport Schiphol (EHAM) |
Arrival
| Time | 2026-05-06 22:28 |
|---|---|
| Airport | Johan Adolf Pengel International Airport (SMJP) |
| Time | Latitude | Longitude | Altitude | Speed | Heading |
|---|---|---|---|---|---|
| 2026-05-06 13:14 | 52.31221 | 4.76856 | 14 ft | 0 kts | 303° |
| 2026-05-06 13:34 | 52.31221 | 4.76857 | 14 ft | 0 kts | 303° |
| 2026-05-06 13:34 | 52.31215 | 4.76871 | 14 ft | 2 kts | 303° |
| 2026-05-06 13:35 | 52.31207 | 4.76891 | 14 ft | 2 kts | 303° |
| 2026-05-06 13:35 | 52.31199 | 4.76912 | 15 ft | 2 kts | 303° |
| 2026-05-06 13:35 | 52.31190 | 4.76932 | 15 ft | 2 kts | 321° |
| 2026-05-06 13:35 | 52.31177 | 4.76944 | 15 ft | 2 kts | 345° |
| 2026-05-06 13:36 | 52.31162 | 4.76947 | 15 ft | 2 kts | 7° |
| 2026-05-06 13:36 | 52.31148 | 4.76940 | 16 ft | 1 kts | 29° |
| 2026-05-06 13:36 | 52.31143 | 4.76935 | 16 ft | 0 kts | 34° |
| 2026-05-06 13:36 | 52.31142 | 4.76934 | 16 ft | 0 kts | 34° |
| 2026-05-06 13:39 | 52.31143 | 4.76935 | 16 ft | 0 kts | 34° |
| 2026-05-06 13:39 | 52.31151 | 4.76943 | 15 ft | 2 kts | 33° |
| 2026-05-06 13:39 | 52.31175 | 4.76969 | 15 ft | 6 kts | 33° |
| 2026-05-06 13:40 | 52.31231 | 4.77028 | 14 ft | 12 kts | 33° |
| 2026-05-06 13:40 | 52.31308 | 4.77111 | 14 ft | 13 kts | 34° |
| 2026-05-06 13:40 | 52.31392 | 4.77184 | 13 ft | 14 kts | 12° |
| 2026-05-06 13:40 | 52.31483 | 4.77126 | 9 ft | 16 kts | 285° |
| 2026-05-06 13:41 | 52.31480 | 4.76931 | 8 ft | 18 kts | 267° |
| 2026-05-06 13:41 | 52.31474 | 4.76718 | 6 ft | 19 kts | 267° |
| 2026-05-06 13:41 | 52.31465 | 4.76498 | 7 ft | 19 kts | 267° |
| 2026-05-06 13:41 | 52.31459 | 4.76280 | 7 ft | 19 kts | 267° |
| 2026-05-06 13:42 | 52.31451 | 4.76062 | 7 ft | 19 kts | 266° |
| 2026-05-06 13:42 | 52.31443 | 4.75838 | 6 ft | 19 kts | 267° |
| 2026-05-06 13:42 | 52.31435 | 4.75621 | 9 ft | 18 kts | 267° |
| 2026-05-06 13:42 | 52.31427 | 4.75400 | 7 ft | 20 kts | 266° |
| 2026-05-06 13:43 | 52.31419 | 4.75165 | 5 ft | 21 kts | 267° |
| 2026-05-06 13:43 | 52.31411 | 4.74913 | 4 ft | 22 kts | 267° |
| 2026-05-06 13:43 | 52.31403 | 4.74650 | 1 ft | 23 kts | 267° |
| 2026-05-06 13:43 | 52.31394 | 4.74394 | 1 ft | 18 kts | 267° |
| 2026-05-06 13:44 | 52.31389 | 4.74197 | 2 ft | 14 kts | 282° |
| 2026-05-06 13:44 | 52.31458 | 4.74143 | 2 ft | 11 kts | 2° |
| 2026-05-06 13:44 | 52.31546 | 4.74151 | 1 ft | 14 kts | 4° |
| 2026-05-06 13:44 | 52.31664 | 4.74162 | 0 ft | 18 kts | 4° |
| 2026-05-06 13:45 | 52.31791 | 4.74174 | 0 ft | 18 kts | 4° |
| 2026-05-06 13:45 | 52.32027 | 4.74111 | 0 ft | 18 kts | 294° |
| 2026-05-06 13:45 | 52.32042 | 4.73907 | 0 ft | 17 kts | 273° |
| 2026-05-06 13:46 | 52.32050 | 4.73715 | 2 ft | 16 kts | 273° |
| 2026-05-06 13:46 | 52.32056 | 4.73525 | 2 ft | 17 kts | 274° |
| 2026-05-06 13:46 | 52.32099 | 4.73345 | 2 ft | 17 kts | 314° |
| 2026-05-06 13:46 | 52.32194 | 4.73208 | 0 ft | 19 kts | 319° |
| 2026-05-06 13:47 | 52.32295 | 4.73063 | 0 ft | 19 kts | 319° |
| 2026-05-06 13:47 | 52.32396 | 4.72921 | 0 ft | 19 kts | 319° |
| 2026-05-06 13:47 | 52.32496 | 4.72780 | 0 ft | 18 kts | 319° |
| 2026-05-06 13:47 | 52.32594 | 4.72644 | 1 ft | 18 kts | 320° |
| 2026-05-06 13:48 | 52.32684 | 4.72509 | 2 ft | 17 kts | 312° |
| 2026-05-06 13:48 | 52.32765 | 4.72362 | 2 ft | 17 kts | 312° |
| 2026-05-06 13:48 | 52.32846 | 4.72210 | 2 ft | 17 kts | 311° |
| 2026-05-06 13:48 | 52.32927 | 4.72057 | 1 ft | 18 kts | 311° |
| 2026-05-06 13:49 | 52.33016 | 4.71894 | 0 ft | 19 kts | 312° |
| 2026-05-06 13:49 | 52.33105 | 4.71725 | 0 ft | 19 kts | 310° |
| 2026-05-06 13:49 | 52.33138 | 4.71521 | 0 ft | 19 kts | 246° |
| 2026-05-06 13:49 | 52.33048 | 4.71358 | 0 ft | 19 kts | 215° |
| 2026-05-06 13:50 | 52.32946 | 4.71225 | 0 ft | 15 kts | 223° |
| 2026-05-06 13:50 | 52.32881 | 4.71123 | 0 ft | 12 kts | 235° |
| 2026-05-06 13:50 | 52.32865 | 4.70985 | 0 ft | 13 kts | 276° |
| 2026-05-06 13:50 | 52.32875 | 4.70900 | 0 ft | 6 kts | 298° |
| 2026-05-06 13:51 | 52.32917 | 4.70888 | 0 ft | 7 kts | 4° |
| 2026-05-06 13:51 | 52.32928 | 4.70889 | 0 ft | 0 kts | 3° |
| 2026-05-06 13:52 | 52.33016 | 4.70898 | 0 ft | 40 kts | 4° |
| 2026-05-06 13:52 | 52.33555 | 4.70950 | 0 ft | 113 kts | 4° |
| 2026-05-06 13:53 | 52.34566 | 4.71039 | 3 ft | 172 kts | 4° |
| 2026-05-06 13:53 | 52.35788 | 4.71170 | 552 ft | 179 kts | 9° |
| 2026-05-06 13:53 | 52.37022 | 4.71317 | 1401 ft | 179 kts | 7° |
| 2026-05-06 13:53 | 52.38276 | 4.71397 | 1875 ft | 188 kts | 6° |
| 2026-05-06 13:54 | 52.39641 | 4.71516 | 2207 ft | 205 kts | 7° |
| 2026-05-06 13:54 | 52.41114 | 4.71654 | 2602 ft | 221 kts | 6° |
| 2026-05-06 13:54 | 52.42713 | 4.71453 | 2978 ft | 242 kts | 347° |
| 2026-05-06 13:54 | 52.44223 | 4.70118 | 3511 ft | 259 kts | 323° |
| 2026-05-06 13:55 | 52.45505 | 4.68039 | 4215 ft | 263 kts | 315° |
| 2026-05-06 13:55 | 52.46419 | 4.65411 | 4888 ft | 273 kts | 288° |
| 2026-05-06 13:55 | 52.46662 | 4.62339 | 5580 ft | 277 kts | 275° |
| 2026-05-06 13:55 | 52.46694 | 4.59169 | 6307 ft | 277 kts | 273° |
| 2026-05-06 13:56 | 52.46595 | 4.56038 | 6948 ft | 281 kts | 258° |
| 2026-05-06 13:56 | 52.45771 | 4.53157 | 7607 ft | 285 kts | 232° |
| 2026-05-06 13:56 | 52.44305 | 4.51016 | 8241 ft | 288 kts | 216° |
| 2026-05-06 13:56 | 52.42769 | 4.48904 | 8904 ft | 288 kts | 229° |
| 2026-05-06 13:57 | 52.41577 | 4.46312 | 9528 ft | 289 kts | 239° |
| 2026-05-06 13:57 | 52.40561 | 4.43507 | 10148 ft | 292 kts | 242° |
| 2026-05-06 13:57 | 52.39563 | 4.40514 | 10470 ft | 307 kts | 244° |
| 2026-05-06 13:57 | 52.38529 | 4.37345 | 10754 ft | 322 kts | 244° |
| 2026-05-06 13:58 | 52.37465 | 4.34078 | 11012 ft | 337 kts | 243° |
| 2026-05-06 13:58 | 52.36342 | 4.30637 | 11308 ft | 351 kts | 243° |
| 2026-05-06 13:58 | 52.35175 | 4.27064 | 11591 ft | 365 kts | 243° |
| 2026-05-06 13:58 | 52.33956 | 4.23343 | 11980 ft | 375 kts | 243° |
| 2026-05-06 13:59 | 52.32718 | 4.19568 | 12613 ft | 378 kts | 243° |
| 2026-05-06 13:59 | 52.31428 | 4.15808 | 13263 ft | 381 kts | 238° |
| 2026-05-06 13:59 | 52.29869 | 4.12340 | 13901 ft | 384 kts | 233° |
| 2026-05-06 13:59 | 52.28228 | 4.08895 | 14551 ft | 386 kts | 233° |
| 2026-05-06 14:00 | 52.26584 | 4.05455 | 15147 ft | 390 kts | 233° |
| 2026-05-06 14:00 | 52.24908 | 4.01952 | 15707 ft | 394 kts | 233° |
| 2026-05-06 14:00 | 52.23239 | 3.98468 | 16305 ft | 397 kts | 233° |
| 2026-05-06 14:00 | 52.21535 | 3.94912 | 16886 ft | 401 kts | 233° |
| 2026-05-06 14:01 | 52.19812 | 3.91323 | 17450 ft | 405 kts | 233° |
| 2026-05-06 14:01 | 52.18075 | 3.87709 | 18021 ft | 408 kts | 233° |
| 2026-05-06 14:01 | 52.16313 | 3.84048 | 18567 ft | 411 kts | 233° |
| 2026-05-06 14:01 | 52.14554 | 3.80397 | 19122 ft | 414 kts | 233° |
| 2026-05-06 14:02 | 52.12785 | 3.76732 | 19651 ft | 417 kts | 233° |
| 2026-05-06 14:02 | 52.11008 | 3.73054 | 20198 ft | 419 kts | 233° |
| 2026-05-06 14:02 | 52.09188 | 3.69295 | 20720 ft | 422 kts | 233° |
| 2026-05-06 14:02 | 52.07386 | 3.65576 | 21202 ft | 425 kts | 232° |
| 2026-05-06 14:03 | 52.05545 | 3.61784 | 21759 ft | 426 kts | 232° |
| 2026-05-06 14:03 | 52.03711 | 3.58011 | 22283 ft | 428 kts | 232° |
| 2026-05-06 14:03 | 52.01884 | 3.54259 | 22744 ft | 431 kts | 232° |
| 2026-05-06 14:03 | 52.00018 | 3.50431 | 23184 ft | 434 kts | 232° |
| 2026-05-06 14:04 | 51.98196 | 3.46590 | 23654 ft | 436 kts | 234° |
| 2026-05-06 14:04 | 51.96391 | 3.42570 | 24122 ft | 439 kts | 234° |
| 2026-05-06 14:04 | 51.94608 | 3.38592 | 24559 ft | 443 kts | 234° |
| 2026-05-06 14:04 | 51.92789 | 3.34550 | 24988 ft | 446 kts | 234° |
| 2026-05-06 14:05 | 51.90948 | 3.30473 | 25448 ft | 448 kts | 234° |
| 2026-05-06 14:05 | 51.89116 | 3.26426 | 25936 ft | 450 kts | 234° |
| 2026-05-06 14:05 | 51.87331 | 3.22323 | 26402 ft | 451 kts | 238° |
| 2026-05-06 14:05 | 51.85883 | 3.17843 | 26793 ft | 454 kts | 247° |
| 2026-05-06 14:06 | 51.84863 | 3.13028 | 27157 ft | 457 kts | 255° |
| 2026-05-06 14:06 | 51.84297 | 3.07956 | 27536 ft | 460 kts | 263° |
| 2026-05-06 14:06 | 51.83960 | 3.02870 | 27894 ft | 462 kts | 263° |
| 2026-05-06 14:06 | 51.83627 | 2.97632 | 28208 ft | 466 kts | 263° |
| 2026-05-06 14:07 | 51.83297 | 2.92486 | 28525 ft | 468 kts | 263° |
| 2026-05-06 14:07 | 51.82956 | 2.87244 | 28866 ft | 470 kts | 263° |
| 2026-05-06 14:07 | 51.82610 | 2.82001 | 29232 ft | 471 kts | 263° |
| 2026-05-06 14:07 | 51.82262 | 2.76769 | 29623 ft | 472 kts | 263° |
| 2026-05-06 14:08 | 51.81910 | 2.71533 | 30091 ft | 470 kts | 263° |
| 2026-05-06 14:08 | 51.81559 | 2.66342 | 30585 ft | 468 kts | 263° |
| 2026-05-06 14:08 | 51.81201 | 2.61108 | 31053 ft | 466 kts | 263° |
| 2026-05-06 14:08 | 51.80844 | 2.55936 | 31438 ft | 465 kts | 263° |
| 2026-05-06 14:09 | 51.80481 | 2.50716 | 31787 ft | 465 kts | 263° |
| 2026-05-06 14:09 | 51.80119 | 2.45559 | 32104 ft | 465 kts | 263° |
| 2026-05-06 14:09 | 51.79752 | 2.40352 | 32410 ft | 466 kts | 263° |
| 2026-05-06 14:09 | 51.79386 | 2.35190 | 32757 ft | 465 kts | 264° |
| 2026-05-06 14:10 | 51.79017 | 2.30028 | 33115 ft | 464 kts | 263° |
| 2026-05-06 14:10 | 51.78644 | 2.24841 | 33473 ft | 463 kts | 263° |
| 2026-05-06 14:10 | 51.78288 | 2.19756 | 33781 ft | 463 kts | 264° |
| 2026-05-06 14:10 | 51.77984 | 2.14566 | 34079 ft | 463 kts | 264° |
| 2026-05-06 14:11 | 51.77691 | 2.09451 | 34371 ft | 463 kts | 265° |
| 2026-05-06 14:11 | 51.77389 | 2.04261 | 34645 ft | 463 kts | 265° |
| 2026-05-06 14:11 | 51.77085 | 1.99095 | 34893 ft | 463 kts | 265° |
| 2026-05-06 14:11 | 51.76780 | 1.93969 | 35099 ft | 464 kts | 265° |
| 2026-05-06 14:12 | 51.76469 | 1.88809 | 35327 ft | 464 kts | 265° |
| 2026-05-06 14:12 | 51.76156 | 1.83646 | 35579 ft | 462 kts | 264° |
| 2026-05-06 14:12 | 51.75840 | 1.78501 | 35843 ft | 461 kts | 264° |
| 2026-05-06 14:12 | 51.75524 | 1.73381 | 35932 ft | 462 kts | 264° |
| 2026-05-06 14:13 | 51.74785 | 1.63092 | 35941 ft | 460 kts | 259° |
| 2026-05-06 14:13 | 51.72786 | 1.53359 | 35946 ft | 461 kts | 249° |
| 2026-05-06 14:14 | 51.70381 | 1.43805 | 35947 ft | 461 kts | 249° |
| 2026-05-06 14:14 | 51.67965 | 1.34264 | 35948 ft | 461 kts | 248° |
| 2026-05-06 14:15 | 51.65608 | 1.24998 | 35953 ft | 460 kts | 248° |
| 2026-05-06 14:15 | 51.63177 | 1.15488 | 35954 ft | 461 kts | 248° |
| 2026-05-06 14:16 | 51.60742 | 1.05997 | 35954 ft | 461 kts | 248° |
| 2026-05-06 14:16 | 51.59520 | 1.01252 | 35761 ft | 460 kts | 248° |
| 2026-05-06 14:16 | 51.58308 | 0.96556 | 35893 ft | 459 kts | 248° |
| 2026-05-06 14:17 | 51.55868 | 0.87127 | 35945 ft | 463 kts | 248° |
| 2026-05-06 14:17 | 51.53396 | 0.77613 | 36242 ft | 463 kts | 248° |
| 2026-05-06 14:18 | 51.52150 | 0.72835 | 36093 ft | 465 kts | 248° |
| 2026-05-06 14:18 | 51.50913 | 0.68100 | 35764 ft | 460 kts | 248° |
| 2026-05-06 14:18 | 51.49693 | 0.63440 | 35893 ft | 456 kts | 248° |
| 2026-05-06 14:18 | 51.48465 | 0.58761 | 35939 ft | 458 kts | 248° |
| 2026-05-06 14:19 | 51.45988 | 0.49347 | 35958 ft | 462 kts | 248° |
| 2026-05-06 14:19 | 51.43484 | 0.39871 | 35963 ft | 461 kts | 248° |
| 2026-05-06 14:20 | 51.41023 | 0.30596 | 35967 ft | 462 kts | 248° |
| 2026-05-06 14:20 | 51.38509 | 0.21157 | 35968 ft | 462 kts | 248° |
| 2026-05-06 14:21 | 51.36021 | 0.11857 | 35969 ft | 462 kts | 247° |
| 2026-05-06 14:21 | 51.33493 | 0.02444 | 35970 ft | 462 kts | 248° |
| 2026-05-06 14:22 | 51.30964 | -0.06934 | 35971 ft | 462 kts | 248° |
| 2026-05-06 14:22 | 51.28430 | -0.16292 | 35971 ft | 462 kts | 248° |
| 2026-05-06 14:23 | 51.25888 | -0.25641 | 35967 ft | 462 kts | 248° |
| 2026-05-06 14:23 | 51.23338 | -0.34983 | 35965 ft | 461 kts | 248° |
| 2026-05-06 14:24 | 51.20796 | -0.44257 | 35963 ft | 462 kts | 248° |
| 2026-05-06 14:24 | 51.18238 | -0.53553 | 35962 ft | 461 kts | 248° |
| 2026-05-06 14:25 | 51.15659 | -0.62887 | 35963 ft | 461 kts | 248° |
| 2026-05-06 14:25 | 51.13086 | -0.72163 | 35966 ft | 461 kts | 247° |
| 2026-05-06 14:26 | 51.10512 | -0.81409 | 35963 ft | 461 kts | 247° |
| 2026-05-06 14:26 | 51.07910 | -0.90713 | 35962 ft | 461 kts | 247° |
| 2026-05-06 14:27 | 51.05315 | -0.99958 | 35964 ft | 461 kts | 247° |
| 2026-05-06 14:27 | 51.02697 | -1.09251 | 35966 ft | 461 kts | 247° |
| 2026-05-06 14:28 | 51.00089 | -1.18469 | 35977 ft | 460 kts | 247° |
| 2026-05-06 14:28 | 50.97482 | -1.27648 | 35978 ft | 461 kts | 247° |
| 2026-05-06 14:29 | 50.95170 | -1.36940 | 35977 ft | 458 kts | 257° |
| 2026-05-06 14:29 | 50.93891 | -1.46843 | 35981 ft | 459 kts | 260° |
| 2026-05-06 14:30 | 50.92669 | -1.56656 | 36257 ft | 459 kts | 259° |
| 2026-05-06 14:30 | 50.92041 | -1.61620 | 35853 ft | 461 kts | 259° |
| 2026-05-06 14:30 | 50.91409 | -1.66567 | 35929 ft | 453 kts | 259° |
| 2026-05-06 14:31 | 50.90151 | -1.76342 | 36121 ft | 461 kts | 259° |
| 2026-05-06 14:31 | 50.89510 | -1.81276 | 36009 ft | 456 kts | 259° |
| 2026-05-06 14:31 | 50.88882 | -1.86081 | 35996 ft | 454 kts | 259° |
| 2026-05-06 14:32 | 50.87599 | -1.95853 | 36004 ft | 456 kts | 259° |
| 2026-05-06 14:32 | 50.86303 | -2.05649 | 35996 ft | 455 kts | 259° |
| 2026-05-06 14:33 | 50.85003 | -2.15394 | 35992 ft | 455 kts | 259° |
| 2026-05-06 14:33 | 50.83688 | -2.25185 | 35990 ft | 457 kts | 259° |
| 2026-05-06 14:34 | 50.83030 | -2.30064 | 35814 ft | 456 kts | 259° |
| 2026-05-06 14:34 | 50.82372 | -2.34917 | 35940 ft | 455 kts | 259° |
| 2026-05-06 14:34 | 50.81043 | -2.44679 | 35985 ft | 458 kts | 259° |
| 2026-05-06 14:35 | 50.79701 | -2.54470 | 35989 ft | 456 kts | 259° |
| 2026-05-06 14:35 | 50.78529 | -2.64286 | 35987 ft | 455 kts | 261° |
| 2026-05-06 14:36 | 50.77405 | -2.74102 | 35988 ft | 455 kts | 260° |
| 2026-05-06 14:36 | 50.76267 | -2.83895 | 35990 ft | 455 kts | 260° |
| 2026-05-06 14:37 | 50.75109 | -2.93745 | 35988 ft | 457 kts | 260° |
| 2026-05-06 14:37 | 50.73950 | -3.03508 | 35990 ft | 456 kts | 260° |
| 2026-05-06 14:38 | 50.72770 | -3.13360 | 35992 ft | 455 kts | 260° |
| 2026-05-06 14:38 | 50.71594 | -3.23105 | 35994 ft | 456 kts | 260° |
| 2026-05-06 14:39 | 50.70402 | -3.32906 | 35994 ft | 455 kts | 260° |
| 2026-05-06 14:39 | 50.69206 | -3.42663 | 35995 ft | 455 kts | 260° |
| 2026-05-06 14:40 | 50.67996 | -3.52464 | 35997 ft | 455 kts | 260° |
| 2026-05-06 14:40 | 50.66783 | -3.62213 | 35996 ft | 456 kts | 260° |
| 2026-05-06 14:41 | 50.65552 | -3.72041 | 35997 ft | 456 kts | 259° |
| 2026-05-06 14:41 | 50.64321 | -3.81800 | 35992 ft | 457 kts | 259° |
| 2026-05-06 14:42 | 50.63079 | -3.91572 | 35988 ft | 455 kts | 259° |
| 2026-05-06 14:42 | 50.61792 | -4.01322 | 35977 ft | 456 kts | 259° |
| 2026-05-06 14:43 | 50.60452 | -4.11096 | 35982 ft | 456 kts | 259° |
| 2026-05-06 14:43 | 50.59104 | -4.20881 | 35986 ft | 456 kts | 259° |
| 2026-05-06 14:44 | 50.57763 | -4.30567 | 35988 ft | 457 kts | 259° |
| 2026-05-06 14:45 | 50.55735 | -4.45105 | 35985 ft | 456 kts | 259° |
| 2026-05-06 14:45 | 50.54369 | -4.54817 | 35989 ft | 456 kts | 259° |
| 2026-05-06 14:46 | 50.52999 | -4.64503 | 35986 ft | 456 kts | 259° |
| 2026-05-06 14:46 | 50.51622 | -4.74175 | 35992 ft | 457 kts | 258° |
| 2026-05-06 14:47 | 50.50228 | -4.83900 | 35999 ft | 456 kts | 258° |
| 2026-05-06 14:47 | 50.48824 | -4.93634 | 35998 ft | 456 kts | 258° |
| 2026-05-06 14:48 | 50.47419 | -5.03317 | 35999 ft | 456 kts | 258° |
| 2026-05-06 14:48 | 50.46011 | -5.12954 | 35999 ft | 456 kts | 258° |
| 2026-05-06 14:49 | 50.44587 | -5.22648 | 35997 ft | 456 kts | 258° |
| 2026-05-06 14:49 | 50.43154 | -5.32332 | 35994 ft | 456 kts | 258° |
| 2026-05-06 14:50 | 50.41718 | -5.41988 | 36001 ft | 456 kts | 258° |
| 2026-05-06 14:50 | 50.40279 | -5.51595 | 35996 ft | 456 kts | 258° |
| 2026-05-06 14:51 | 50.38824 | -5.61255 | 35993 ft | 455 kts | 258° |
| 2026-05-06 14:51 | 50.37363 | -5.70892 | 35997 ft | 456 kts | 257° |
| 2026-05-06 14:52 | 50.35894 | -5.80528 | 35994 ft | 455 kts | 257° |
| 2026-05-06 14:52 | 50.34421 | -5.90133 | 35998 ft | 455 kts | 257° |
| 2026-05-06 14:53 | 50.32933 | -5.99774 | 35997 ft | 455 kts | 257° |
| 2026-05-06 14:53 | 50.31446 | -6.09355 | 35991 ft | 456 kts | 257° |
| 2026-05-06 14:54 | 50.29945 | -6.18966 | 35992 ft | 456 kts | 257° |
| 2026-05-06 14:54 | 50.28435 | -6.28577 | 35995 ft | 456 kts | 257° |
| 2026-05-06 14:55 | 50.26931 | -6.38094 | 35989 ft | 455 kts | 257° |
| 2026-05-06 14:55 | 50.25404 | -6.47704 | 36001 ft | 456 kts | 257° |
| 2026-05-06 14:56 | 50.23872 | -6.57288 | 35997 ft | 455 kts | 257° |
| 2026-05-06 14:56 | 50.23098 | -6.62112 | 36262 ft | 456 kts | 257° |
| 2026-05-06 14:56 | 50.22327 | -6.66895 | 36200 ft | 456 kts | 257° |
| 2026-05-06 14:56 | 50.21551 | -6.71704 | 36047 ft | 457 kts | 257° |
| 2026-05-06 14:57 | 50.20789 | -6.76410 | 36002 ft | 452 kts | 257° |
| 2026-05-06 14:57 | 50.19238 | -6.85946 | 35999 ft | 455 kts | 257° |
| 2026-05-06 14:58 | 50.17681 | -6.95463 | 35998 ft | 453 kts | 257° |
| 2026-05-06 14:58 | 50.16116 | -7.04984 | 35999 ft | 453 kts | 257° |
| 2026-05-06 14:59 | 50.14546 | -7.14475 | 36014 ft | 455 kts | 257° |
| 2026-05-06 14:59 | 50.12963 | -7.23990 | 36015 ft | 454 kts | 257° |
| 2026-05-06 15:00 | 50.11377 | -7.33476 | 36011 ft | 455 kts | 256° |
| 2026-05-06 15:00 | 50.09778 | -7.42983 | 36010 ft | 456 kts | 256° |
| 2026-05-06 15:01 | 50.08174 | -7.52464 | 36004 ft | 456 kts | 256° |
| 2026-05-06 15:01 | 50.06555 | -7.61989 | 36009 ft | 457 kts | 257° |
| 2026-05-06 15:02 | 50.04917 | -7.71565 | 36010 ft | 457 kts | 256° |
| 2026-05-06 15:02 | 50.03277 | -7.81109 | 36017 ft | 457 kts | 256° |
| 2026-05-06 15:03 | 50.01644 | -7.90554 | 36009 ft | 457 kts | 256° |
| 2026-05-06 15:03 | 49.99887 | -8.00069 | 36008 ft | 458 kts | 250° |
| 2026-05-06 15:04 | 49.97505 | -8.09225 | 36014 ft | 459 kts | 249° |
| 2026-05-06 15:04 | 49.95072 | -8.18364 | 36018 ft | 459 kts | 249° |
| 2026-05-06 15:05 | 49.92637 | -8.27443 | 36020 ft | 459 kts | 249° |
| 2026-05-06 15:05 | 49.90184 | -8.36538 | 36022 ft | 459 kts | 249° |
| 2026-05-06 15:06 | 49.87717 | -8.45643 | 36019 ft | 459 kts | 249° |
| 2026-05-06 15:06 | 49.85231 | -8.54775 | 36023 ft | 459 kts | 249° |
| 2026-05-06 15:07 | 49.82753 | -8.63842 | 36022 ft | 459 kts | 249° |
| 2026-05-06 15:07 | 49.80265 | -8.72909 | 36027 ft | 460 kts | 248° |
| 2026-05-06 15:08 | 49.77763 | -8.81992 | 36029 ft | 460 kts | 248° |
| 2026-05-06 15:08 | 49.75261 | -8.91038 | 36030 ft | 460 kts | 248° |
| 2026-05-06 15:09 | 49.72749 | -9.00088 | 36027 ft | 460 kts | 248° |
| 2026-05-06 15:09 | 49.70226 | -9.09138 | 36019 ft | 462 kts | 248° |
| 2026-05-06 15:10 | 49.67671 | -9.18273 | 36005 ft | 463 kts | 248° |
| 2026-05-06 15:10 | 49.65113 | -9.27380 | 36005 ft | 464 kts | 248° |
| 2026-05-06 15:11 | 49.62557 | -9.36446 | 36011 ft | 463 kts | 248° |
| 2026-05-06 15:11 | 49.59972 | -9.45580 | 36016 ft | 464 kts | 248° |
| 2026-05-06 15:12 | 49.57400 | -9.54631 | 36017 ft | 463 kts | 248° |
| 2026-05-06 15:12 | 49.54816 | -9.63693 | 36017 ft | 464 kts | 248° |
| 2026-05-06 15:13 | 49.52237 | -9.72704 | 36027 ft | 463 kts | 247° |
| 2026-05-06 15:13 | 49.49623 | -9.81799 | 36027 ft | 464 kts | 247° |
| 2026-05-06 15:14 | 49.47012 | -9.90854 | 36027 ft | 465 kts | 247° |
| 2026-05-06 15:14 | 49.44405 | -9.99856 | 36030 ft | 464 kts | 247° |
| 2026-05-06 15:15 | 49.41786 | -10.08870 | 36026 ft | 464 kts | 247° |
| 2026-05-06 15:15 | 49.39143 | -10.17931 | 36029 ft | 464 kts | 247° |
| 2026-05-06 15:16 | 49.36501 | -10.26952 | 36031 ft | 465 kts | 247° |
| 2026-05-06 15:16 | 49.33851 | -10.35971 | 36030 ft | 466 kts | 247° |
| 2026-05-06 15:17 | 49.31196 | -10.44970 | 36029 ft | 466 kts | 247° |
| 2026-05-06 15:17 | 49.28511 | -10.54039 | 36032 ft | 467 kts | 247° |
| 2026-05-06 15:18 | 49.25844 | -10.63015 | 36031 ft | 466 kts | 247° |
| 2026-05-06 15:18 | 49.23147 | -10.72055 | 36029 ft | 467 kts | 246° |
| 2026-05-06 15:19 | 49.20460 | -10.81030 | 36034 ft | 467 kts | 246° |
| 2026-05-06 15:19 | 49.17742 | -10.90077 | 36028 ft | 468 kts | 246° |
| 2026-05-06 15:20 | 49.15025 | -10.99085 | 36035 ft | 469 kts | 246° |
| 2026-05-06 15:20 | 49.12296 | -11.08100 | 36030 ft | 469 kts | 246° |
| 2026-05-06 15:21 | 49.09556 | -11.17117 | 36024 ft | 470 kts | 246° |
| 2026-05-06 15:21 | 49.06812 | -11.26115 | 36027 ft | 469 kts | 246° |
| 2026-05-06 15:22 | 49.04057 | -11.35116 | 36023 ft | 469 kts | 246° |
| 2026-05-06 15:22 | 49.01297 | -11.44102 | 36033 ft | 471 kts | 246° |
| 2026-05-06 15:23 | 48.98529 | -11.53081 | 36025 ft | 471 kts | 246° |
| 2026-05-06 15:23 | 48.95734 | -11.62115 | 36026 ft | 473 kts | 246° |
| 2026-05-06 15:24 | 48.92943 | -11.71102 | 36034 ft | 474 kts | 245° |
| 2026-05-06 15:24 | 48.90116 | -11.80173 | 36025 ft | 474 kts | 245° |
| 2026-05-06 15:25 | 48.87293 | -11.89200 | 36023 ft | 474 kts | 245° |
| 2026-05-06 15:25 | 48.84458 | -11.98197 | 36033 ft | 475 kts | 243° |
| 2026-05-06 15:26 | 48.81067 | -12.06774 | 36026 ft | 475 kts | 239° |
| 2026-05-06 15:26 | 48.77585 | -12.15205 | 36029 ft | 475 kts | 239° |
| 2026-05-06 15:27 | 48.74078 | -12.23651 | 36032 ft | 476 kts | 239° |
| 2026-05-06 15:27 | 48.70547 | -12.32120 | 36052 ft | 477 kts | 239° |
| 2026-05-06 15:28 | 48.66985 | -12.40630 | 36045 ft | 478 kts | 239° |
| 2026-05-06 15:28 | 48.63432 | -12.49090 | 36043 ft | 477 kts | 239° |
| 2026-05-06 15:29 | 48.59889 | -12.57497 | 36042 ft | 476 kts | 239° |
| 2026-05-06 15:29 | 48.56348 | -12.65874 | 36050 ft | 476 kts | 238° |
| 2026-05-06 15:30 | 48.52799 | -12.74244 | 36047 ft | 475 kts | 238° |
| 2026-05-06 15:30 | 48.49240 | -12.82608 | 36056 ft | 475 kts | 239° |
| 2026-05-06 15:31 | 48.45688 | -12.90934 | 36055 ft | 475 kts | 239° |
| 2026-05-06 15:31 | 48.42116 | -12.99279 | 36046 ft | 474 kts | 239° |
| 2026-05-06 15:32 | 48.36754 | -13.11758 | 36056 ft | 473 kts | 239° |
| 2026-05-06 15:32 | 48.33193 | -13.20014 | 36053 ft | 473 kts | 239° |
| 2026-05-06 15:33 | 48.29599 | -13.28319 | 36056 ft | 474 kts | 239° |
| 2026-05-06 15:33 | 48.26018 | -13.36571 | 36060 ft | 474 kts | 239° |
| 2026-05-06 15:34 | 48.22425 | -13.44825 | 36056 ft | 474 kts | 239° |
| 2026-05-06 15:34 | 48.18850 | -13.53013 | 36058 ft | 473 kts | 239° |
| 2026-05-06 15:35 | 48.15248 | -13.61237 | 36066 ft | 474 kts | 239° |
| 2026-05-06 15:35 | 48.11636 | -13.69459 | 36062 ft | 474 kts | 239° |
| 2026-05-06 15:36 | 48.08017 | -13.77671 | 36067 ft | 474 kts | 239° |
| 2026-05-06 15:36 | 48.06206 | -13.81772 | 35890 ft | 473 kts | 239° |
| 2026-05-06 15:36 | 48.04394 | -13.85869 | 36059 ft | 474 kts | 239° |
| 2026-05-06 15:37 | 48.00752 | -13.94087 | 36068 ft | 479 kts | 239° |
| 2026-05-06 15:37 | 47.97065 | -14.02377 | 36075 ft | 476 kts | 239° |
| 2026-05-06 15:38 | 47.93417 | -14.10558 | 36079 ft | 477 kts | 239° |
| 2026-05-06 15:38 | 47.89748 | -14.18758 | 36080 ft | 476 kts | 239° |
| 2026-05-06 15:39 | 47.86068 | -14.26960 | 36073 ft | 478 kts | 239° |
| 2026-05-06 15:39 | 47.82399 | -14.35114 | 36070 ft | 479 kts | 239° |
| 2026-05-06 15:40 | 47.78674 | -14.43366 | 36075 ft | 479 kts | 239° |
| 2026-05-06 15:40 | 47.74977 | -14.51532 | 36076 ft | 480 kts | 239° |
| 2026-05-06 15:41 | 47.71243 | -14.59753 | 36076 ft | 479 kts | 240° |
| 2026-05-06 15:41 | 47.67518 | -14.67932 | 36079 ft | 480 kts | 239° |
| 2026-05-06 15:42 | 47.63755 | -14.76168 | 36083 ft | 480 kts | 239° |
| 2026-05-06 15:42 | 47.60030 | -14.84298 | 36085 ft | 479 kts | 239° |
| 2026-05-06 15:43 | 47.56302 | -14.92409 | 36085 ft | 480 kts | 239° |
| 2026-05-06 15:43 | 47.52523 | -15.00609 | 36091 ft | 480 kts | 239° |
| 2026-05-06 15:44 | 47.48772 | -15.08724 | 36093 ft | 481 kts | 240° |
| 2026-05-06 15:44 | 47.45000 | -15.16857 | 36094 ft | 480 kts | 240° |
| 2026-05-06 15:45 | 47.41227 | -15.24972 | 36096 ft | 480 kts | 240° |
| 2026-05-06 15:45 | 47.37455 | -15.33058 | 36095 ft | 480 kts | 240° |
| 2026-05-06 15:46 | 47.33672 | -15.41144 | 36096 ft | 478 kts | 240° |
| 2026-05-06 15:46 | 47.29903 | -15.49179 | 36090 ft | 479 kts | 240° |
| 2026-05-06 15:47 | 47.26113 | -15.57232 | 36097 ft | 478 kts | 240° |
| 2026-05-06 15:47 | 47.22342 | -15.65223 | 36094 ft | 477 kts | 239° |
| 2026-05-06 15:48 | 47.18553 | -15.73231 | 36113 ft | 478 kts | 240° |
| 2026-05-06 15:48 | 47.14788 | -15.81161 | 36104 ft | 477 kts | 239° |
| 2026-05-06 15:49 | 47.10978 | -15.89166 | 36108 ft | 476 kts | 240° |
| 2026-05-06 15:49 | 47.07188 | -15.97105 | 36107 ft | 476 kts | 240° |
| 2026-05-06 15:50 | 47.03394 | -16.05029 | 36111 ft | 475 kts | 240° |
| 2026-05-06 15:50 | 46.99597 | -16.12938 | 36104 ft | 475 kts | 240° |
| 2026-05-06 15:51 | 46.95818 | -16.20787 | 36106 ft | 474 kts | 240° |
| 2026-05-06 15:51 | 46.91994 | -16.28707 | 36107 ft | 474 kts | 239° |
| 2026-05-06 15:52 | 46.88190 | -16.36562 | 36100 ft | 474 kts | 240° |
| 2026-05-06 15:52 | 46.84396 | -16.44375 | 36096 ft | 473 kts | 240° |
| 2026-05-06 15:53 | 46.80586 | -16.52199 | 36099 ft | 474 kts | 240° |
| 2026-05-06 15:53 | 46.76763 | -16.60027 | 36096 ft | 474 kts | 240° |
| 2026-05-06 15:54 | 46.72950 | -16.67813 | 36109 ft | 473 kts | 239° |
| 2026-05-06 15:54 | 46.69115 | -16.75623 | 36113 ft | 473 kts | 239° |
| 2026-05-06 15:55 | 46.65311 | -16.83345 | 36105 ft | 473 kts | 239° |
| 2026-05-06 15:55 | 46.61482 | -16.91101 | 36100 ft | 472 kts | 239° |
| 2026-05-06 15:56 | 46.57629 | -16.98880 | 36108 ft | 473 kts | 239° |
| 2026-05-06 15:56 | 46.53812 | -17.06566 | 36110 ft | 473 kts | 239° |
| 2026-05-06 15:57 | 46.49958 | -17.14304 | 36110 ft | 471 kts | 239° |
| 2026-05-06 15:57 | 46.46131 | -17.21968 | 36105 ft | 471 kts | 239° |
| 2026-05-06 15:58 | 46.42282 | -17.29658 | 36110 ft | 471 kts | 239° |
| 2026-05-06 15:58 | 46.38435 | -17.37317 | 36118 ft | 470 kts | 239° |
| 2026-05-06 15:59 | 46.34607 | -17.44922 | 36109 ft | 470 kts | 239° |
| 2026-05-06 15:59 | 46.30750 | -17.52563 | 36120 ft | 470 kts | 239° |
| 2026-05-06 16:00 | 46.26893 | -17.60179 | 36111 ft | 468 kts | 239° |
| 2026-05-06 16:00 | 46.23054 | -17.67744 | 36122 ft | 470 kts | 239° |
| 2026-05-06 16:01 | 46.19188 | -17.75339 | 36119 ft | 469 kts | 239° |
| 2026-05-06 16:01 | 46.15347 | -17.82865 | 36127 ft | 467 kts | 239° |
| 2026-05-06 16:02 | 46.11483 | -17.90416 | 36115 ft | 468 kts | 239° |
| 2026-05-06 16:02 | 46.07642 | -17.97903 | 36126 ft | 467 kts | 239° |
| 2026-05-06 16:03 | 46.03757 | -18.05453 | 36122 ft | 467 kts | 239° |
| 2026-05-06 16:03 | 45.99903 | -18.12925 | 36130 ft | 466 kts | 239° |
| 2026-05-06 16:04 | 45.96043 | -18.20387 | 36121 ft | 464 kts | 239° |
| 2026-05-06 16:04 | 45.92174 | -18.27849 | 36124 ft | 465 kts | 240° |
| 2026-05-06 16:05 | 45.88324 | -18.35253 | 36109 ft | 464 kts | 240° |
| 2026-05-06 16:05 | 45.84455 | -18.42676 | 36108 ft | 466 kts | 240° |
| 2026-05-06 16:06 | 45.80609 | -18.50030 | 36111 ft | 461 kts | 240° |
| 2026-05-06 16:06 | 45.76738 | -18.57420 | 36110 ft | 464 kts | 240° |
| 2026-05-06 16:07 | 45.72854 | -18.64813 | 36107 ft | 465 kts | 240° |
| 2026-05-06 16:07 | 45.68985 | -18.72154 | 36121 ft | 461 kts | 240° |
| 2026-05-06 16:08 | 45.65116 | -18.79481 | 36120 ft | 461 kts | 240° |
| 2026-05-06 16:08 | 45.61253 | -18.86775 | 36115 ft | 460 kts | 240° |
| 2026-05-06 16:09 | 45.57412 | -18.94009 | 36117 ft | 460 kts | 240° |
| 2026-05-06 16:09 | 45.53549 | -19.01269 | 36121 ft | 461 kts | 240° |
| 2026-05-06 16:10 | 45.49681 | -19.08514 | 36115 ft | 459 kts | 240° |
| 2026-05-06 16:10 | 45.45849 | -19.15678 | 36113 ft | 456 kts | 240° |
| 2026-05-06 16:11 | 45.42002 | -19.22851 | 36112 ft | 457 kts | 240° |
| 2026-05-06 16:11 | 45.38153 | -19.30010 | 36114 ft | 457 kts | 240° |
| 2026-05-06 16:12 | 45.34295 | -19.37168 | 36119 ft | 456 kts | 240° |
| 2026-05-06 16:12 | 45.30441 | -19.44298 | 36116 ft | 453 kts | 240° |
| 2026-05-06 16:13 | 45.26598 | -19.51392 | 36116 ft | 455 kts | 240° |
| 2026-05-06 16:13 | 45.22749 | -19.58477 | 36114 ft | 450 kts | 240° |
| 2026-05-06 16:14 | 45.18925 | -19.65500 | 36113 ft | 451 kts | 239° |
| 2026-05-06 16:14 | 45.15091 | -19.72524 | 36124 ft | 450 kts | 239° |
| 2026-05-06 16:15 | 45.11246 | -19.79553 | 36123 ft | 451 kts | 239° |
| 2026-05-06 16:15 | 45.07462 | -19.86448 | 36120 ft | 447 kts | 239° |
| 2026-05-06 16:16 | 45.03634 | -19.93413 | 36121 ft | 448 kts | 239° |
| 2026-05-06 16:16 | 44.99797 | -20.00305 | 36118 ft | 447 kts | 237° |
| 2026-05-06 16:17 | 44.95883 | -20.07003 | 36121 ft | 448 kts | 237° |
| 2026-05-06 16:17 | 44.91899 | -20.13787 | 36114 ft | 448 kts | 237° |
| 2026-05-06 16:18 | 44.87917 | -20.20544 | 36106 ft | 448 kts | 237° |
| 2026-05-06 16:18 | 44.83963 | -20.27239 | 36103 ft | 447 kts | 237° |
| 2026-05-06 16:19 | 44.80002 | -20.33924 | 36105 ft | 445 kts | 237° |
| 2026-05-06 16:19 | 44.76028 | -20.40619 | 36101 ft | 446 kts | 237° |
| 2026-05-06 16:20 | 44.72055 | -20.47295 | 36107 ft | 444 kts | 237° |
| 2026-05-06 16:20 | 44.68107 | -20.53911 | 36109 ft | 443 kts | 237° |
| 2026-05-06 16:21 | 44.64148 | -20.60535 | 36108 ft | 446 kts | 237° |
| 2026-05-06 16:21 | 44.60163 | -20.67181 | 36122 ft | 442 kts | 237° |
| 2026-05-06 16:22 | 44.56191 | -20.73795 | 36123 ft | 445 kts | 236° |
| 2026-05-06 16:22 | 44.52228 | -20.80376 | 36124 ft | 445 kts | 236° |
| 2026-05-06 16:23 | 44.48232 | -20.86995 | 36124 ft | 444 kts | 236° |
| 2026-05-06 16:23 | 44.44241 | -20.93593 | 36118 ft | 446 kts | 236° |
| 2026-05-06 16:24 | 44.40244 | -21.00184 | 36116 ft | 443 kts | 236° |
| 2026-05-06 16:24 | 44.36258 | -21.06741 | 36115 ft | 441 kts | 236° |
| 2026-05-06 16:25 | 44.32279 | -21.13273 | 36117 ft | 442 kts | 236° |
| 2026-05-06 16:25 | 44.28287 | -21.19813 | 36113 ft | 442 kts | 236° |
| 2026-05-06 16:26 | 44.24316 | -21.26300 | 36107 ft | 440 kts | 236° |
| 2026-05-06 16:26 | 44.20342 | -21.32781 | 36114 ft | 441 kts | 236° |
| 2026-05-06 16:27 | 44.16361 | -21.39256 | 36108 ft | 440 kts | 236° |
| 2026-05-06 16:27 | 44.12407 | -21.45672 | 36112 ft | 438 kts | 236° |
| 2026-05-06 16:28 | 44.08427 | -21.52118 | 36102 ft | 438 kts | 236° |
| 2026-05-06 16:28 | 44.04473 | -21.58508 | 36114 ft | 438 kts | 236° |
| 2026-05-06 16:29 | 44.00536 | -21.64852 | 36113 ft | 436 kts | 236° |
| 2026-05-06 16:29 | 43.96553 | -21.71261 | 36123 ft | 435 kts | 235° |
| 2026-05-06 16:30 | 43.93269 | -21.76531 | 36121 ft | 435 kts | 235° |
| 2026-05-06 16:30 | 43.88680 | -21.83883 | 36120 ft | 436 kts | 235° |
| 2026-05-06 16:31 | 43.84709 | -21.90227 | 36115 ft | 433 kts | 235° |
| 2026-05-06 16:31 | 43.80738 | -21.96559 | 36115 ft | 435 kts | 235° |
| 2026-05-06 16:32 | 43.76791 | -22.02838 | 36116 ft | 433 kts | 235° |
| 2026-05-06 16:32 | 43.72837 | -22.09116 | 36115 ft | 437 kts | 235° |
| 2026-05-06 16:33 | 43.68849 | -22.15430 | 36111 ft | 433 kts | 235° |
| 2026-05-06 16:34 | 43.62920 | -22.24795 | 36110 ft | 433 kts | 235° |
| 2026-05-06 16:34 | 43.58954 | -22.31043 | 36110 ft | 432 kts | 235° |
| 2026-05-06 16:35 | 43.54979 | -22.37291 | 36111 ft | 431 kts | 235° |
| 2026-05-06 16:35 | 43.51030 | -22.43485 | 36109 ft | 431 kts | 235° |
| 2026-05-06 16:36 | 43.47075 | -22.49676 | 36110 ft | 433 kts | 234° |
| 2026-05-06 16:36 | 43.43124 | -22.55844 | 36112 ft | 432 kts | 235° |
| 2026-05-06 16:37 | 43.39156 | -22.62027 | 36110 ft | 431 kts | 234° |
| 2026-05-06 16:37 | 43.35176 | -22.68218 | 36119 ft | 433 kts | 234° |
| 2026-05-06 16:38 | 43.31198 | -22.74389 | 36121 ft | 429 kts | 234° |
| 2026-05-06 16:38 | 43.27227 | -22.80539 | 36118 ft | 431 kts | 234° |
| 2026-05-06 16:39 | 43.23249 | -22.86685 | 36117 ft | 431 kts | 234° |
| 2026-05-06 16:39 | 43.19296 | -22.92779 | 36118 ft | 432 kts | 234° |
| 2026-05-06 16:40 | 43.15318 | -22.98898 | 36113 ft | 428 kts | 234° |
| 2026-05-06 16:40 | 43.11326 | -23.05030 | 36116 ft | 433 kts | 234° |
| 2026-05-06 16:41 | 43.07345 | -23.11126 | 36116 ft | 428 kts | 234° |
| 2026-05-06 16:41 | 43.03358 | -23.17223 | 36119 ft | 431 kts | 234° |
| 2026-05-06 16:42 | 42.99383 | -23.23286 | 36114 ft | 428 kts | 234° |
| 2026-05-06 16:42 | 42.95419 | -23.29319 | 36117 ft | 426 kts | 234° |
| 2026-05-06 16:43 | 42.91446 | -23.35356 | 36114 ft | 428 kts | 234° |
| 2026-05-06 16:43 | 42.87482 | -23.41365 | 36113 ft | 426 kts | 234° |
| 2026-05-06 16:44 | 42.83510 | -23.47373 | 36110 ft | 426 kts | 234° |
| 2026-05-06 16:44 | 42.79543 | -23.53364 | 36114 ft | 428 kts | 234° |
| 2026-05-06 16:45 | 42.75564 | -23.59359 | 36114 ft | 427 kts | 234° |
| 2026-05-06 16:45 | 42.71586 | -23.65338 | 36121 ft | 426 kts | 233° |
| 2026-05-06 16:46 | 42.67618 | -23.71293 | 36132 ft | 426 kts | 233° |
| 2026-05-06 16:46 | 42.63644 | -23.77244 | 36131 ft | 427 kts | 233° |
| 2026-05-06 16:47 | 42.59679 | -23.83169 | 36127 ft | 427 kts | 233° |
| 2026-05-06 16:47 | 42.55682 | -23.89128 | 36123 ft | 425 kts | 233° |
| 2026-05-06 16:48 | 42.51699 | -23.95057 | 36131 ft | 426 kts | 233° |
| 2026-05-06 16:48 | 42.47725 | -24.00956 | 36129 ft | 425 kts | 233° |
| 2026-05-06 16:49 | 42.43753 | -24.06845 | 36129 ft | 425 kts | 233° |
| 2026-05-06 16:49 | 42.39749 | -24.12765 | 36124 ft | 426 kts | 233° |
| 2026-05-06 16:50 | 42.35758 | -24.18657 | 36128 ft | 424 kts | 233° |
| 2026-05-06 16:50 | 42.31779 | -24.24520 | 36126 ft | 426 kts | 233° |
| 2026-05-06 16:51 | 42.27776 | -24.30403 | 36129 ft | 423 kts | 232° |
| 2026-05-06 16:51 | 42.23823 | -24.36204 | 36116 ft | 423 kts | 232° |
| 2026-05-06 16:52 | 42.19826 | -24.42056 | 36123 ft | 424 kts | 233° |
| 2026-05-06 16:52 | 42.15839 | -24.47883 | 36125 ft | 423 kts | 233° |
| 2026-05-06 16:53 | 42.11858 | -24.53688 | 36123 ft | 425 kts | 232° |
| 2026-05-06 16:53 | 42.07845 | -24.59530 | 36128 ft | 425 kts | 233° |
| 2026-05-06 16:54 | 42.03818 | -24.65379 | 36129 ft | 423 kts | 232° |
| 2026-05-06 16:54 | 41.99833 | -24.71156 | 36142 ft | 423 kts | 232° |
| 2026-05-06 16:55 | 41.95849 | -24.76921 | 36140 ft | 423 kts | 232° |
| 2026-05-06 16:55 | 41.91813 | -24.82748 | 36142 ft | 423 kts | 232° |
| 2026-05-06 16:56 | 41.87834 | -24.88482 | 36145 ft | 423 kts | 232° |
| 2026-05-06 16:56 | 41.83813 | -24.94267 | 36146 ft | 425 kts | 232° |
| 2026-05-06 16:57 | 41.79802 | -25.00023 | 36141 ft | 423 kts | 232° |
| 2026-05-06 16:57 | 41.75776 | -25.05792 | 36152 ft | 424 kts | 232° |
| 2026-05-06 16:58 | 41.71769 | -25.11519 | 36148 ft | 421 kts | 232° |
| 2026-05-06 16:58 | 41.67749 | -25.17256 | 36147 ft | 423 kts | 232° |
| 2026-05-06 16:59 | 41.63734 | -25.22974 | 36141 ft | 423 kts | 232° |
| 2026-05-06 16:59 | 41.59733 | -25.28661 | 36151 ft | 421 kts | 232° |
| 2026-05-06 17:00 | 41.55707 | -25.34374 | 36144 ft | 422 kts | 232° |
| 2026-05-06 17:00 | 41.51721 | -25.40016 | 36151 ft | 420 kts | 232° |
| 2026-05-06 17:01 | 41.47680 | -25.45729 | 36144 ft | 422 kts | 232° |
| 2026-05-06 17:01 | 41.43689 | -25.51356 | 36154 ft | 421 kts | 232° |
| 2026-05-06 17:02 | 41.39661 | -25.57026 | 36146 ft | 417 kts | 232° |
| 2026-05-06 17:02 | 41.35664 | -25.62644 | 36154 ft | 422 kts | 231° |
| 2026-05-06 17:03 | 41.31611 | -25.68327 | 36164 ft | 423 kts | 231° |
| 2026-05-06 17:03 | 41.27581 | -25.73966 | 36170 ft | 419 kts | 231° |
| 2026-05-06 17:04 | 41.23556 | -25.79590 | 36167 ft | 422 kts | 231° |
| 2026-05-06 17:04 | 41.19514 | -25.85226 | 36154 ft | 422 kts | 231° |
| 2026-05-06 17:05 | 41.15479 | -25.90842 | 36154 ft | 423 kts | 231° |
| 2026-05-06 17:05 | 41.11417 | -25.96483 | 36154 ft | 421 kts | 231° |
| 2026-05-06 17:06 | 41.07378 | -26.02083 | 36149 ft | 423 kts | 231° |
| 2026-05-06 17:06 | 41.03321 | -26.07695 | 36145 ft | 419 kts | 231° |
| 2026-05-06 17:07 | 40.99283 | -26.13274 | 36146 ft | 421 kts | 231° |
| 2026-05-06 17:07 | 40.95225 | -26.18866 | 36145 ft | 421 kts | 231° |
| 2026-05-06 17:08 | 40.91193 | -26.24414 | 36148 ft | 422 kts | 231° |
| 2026-05-06 17:08 | 40.87124 | -26.30001 | 36160 ft | 421 kts | 231° |
| 2026-05-06 17:09 | 40.83095 | -26.35523 | 36148 ft | 420 kts | 231° |
| 2026-05-06 17:09 | 40.79020 | -26.41099 | 36157 ft | 420 kts | 231° |
| 2026-05-06 17:10 | 40.74986 | -26.46608 | 36151 ft | 420 kts | 231° |
| 2026-05-06 17:10 | 40.70927 | -26.52140 | 36144 ft | 419 kts | 231° |
| 2026-05-06 17:11 | 40.66890 | -26.57633 | 36137 ft | 420 kts | 231° |
| 2026-05-06 17:11 | 40.62848 | -26.63122 | 36141 ft | 419 kts | 231° |
| 2026-05-06 17:12 | 40.58784 | -26.68630 | 36151 ft | 419 kts | 230° |
| 2026-05-06 17:12 | 40.54740 | -26.74101 | 36152 ft | 419 kts | 231° |
| 2026-05-06 17:13 | 40.50658 | -26.79614 | 36151 ft | 420 kts | 231° |
| 2026-05-06 17:13 | 40.46584 | -26.85105 | 36148 ft | 418 kts | 231° |
| 2026-05-06 17:14 | 40.42530 | -26.90560 | 36151 ft | 419 kts | 231° |
| 2026-05-06 17:14 | 40.38453 | -26.96033 | 36142 ft | 418 kts | 230° |
| 2026-05-06 17:15 | 40.34376 | -27.01499 | 36142 ft | 420 kts | 231° |
| 2026-05-06 17:15 | 40.30331 | -27.06911 | 36138 ft | 416 kts | 231° |
| 2026-05-06 17:16 | 40.26255 | -27.12356 | 36143 ft | 421 kts | 231° |
| 2026-05-06 17:16 | 40.22174 | -27.17795 | 36146 ft | 415 kts | 231° |
| 2026-05-06 17:17 | 40.18113 | -27.23202 | 36139 ft | 421 kts | 231° |
| 2026-05-06 17:17 | 40.14046 | -27.28600 | 36154 ft | 414 kts | 231° |
| 2026-05-06 17:18 | 40.09989 | -27.33981 | 36150 ft | 418 kts | 231° |
| 2026-05-06 17:18 | 40.05899 | -27.39394 | 36143 ft | 418 kts | 231° |
| 2026-05-06 17:19 | 40.01839 | -27.44757 | 36152 ft | 416 kts | 231° |
| 2026-05-06 17:19 | 39.97773 | -27.50119 | 36149 ft | 416 kts | 231° |
| 2026-05-06 17:20 | 39.93718 | -27.55456 | 36149 ft | 414 kts | 231° |
| 2026-05-06 17:20 | 39.89674 | -27.60770 | 36146 ft | 414 kts | 231° |
| 2026-05-06 17:21 | 39.85621 | -27.66086 | 36160 ft | 413 kts | 231° |
| 2026-05-06 17:21 | 39.81562 | -27.71402 | 36170 ft | 415 kts | 231° |
| 2026-05-06 17:22 | 39.77491 | -27.76722 | 36160 ft | 415 kts | 231° |
| 2026-05-06 17:22 | 39.73438 | -27.82012 | 36160 ft | 415 kts | 231° |
| 2026-05-06 17:23 | 39.69350 | -27.87336 | 36164 ft | 416 kts | 231° |
| 2026-05-06 17:23 | 39.65275 | -27.92632 | 36158 ft | 414 kts | 231° |
| 2026-05-06 17:24 | 39.61193 | -27.97931 | 36156 ft | 417 kts | 231° |
| 2026-05-06 17:24 | 39.57115 | -28.03212 | 36165 ft | 413 kts | 231° |
| 2026-05-06 17:25 | 39.53039 | -28.08483 | 36155 ft | 414 kts | 231° |
| 2026-05-06 17:25 | 39.48970 | -28.13736 | 36162 ft | 413 kts | 231° |
| 2026-05-06 17:26 | 39.44890 | -28.18996 | 36157 ft | 416 kts | 231° |
| 2026-05-06 17:26 | 39.40785 | -28.24275 | 36164 ft | 415 kts | 231° |
| 2026-05-06 17:27 | 39.36713 | -28.29503 | 36158 ft | 414 kts | 231° |
| 2026-05-06 17:27 | 39.32641 | -28.34723 | 36162 ft | 411 kts | 231° |
| 2026-05-06 17:28 | 39.28590 | -28.39909 | 36161 ft | 414 kts | 232° |
| 2026-05-06 17:28 | 39.24485 | -28.45153 | 36159 ft | 413 kts | 232° |
| 2026-05-06 17:29 | 39.20421 | -28.50335 | 36168 ft | 413 kts | 232° |
| 2026-05-06 17:29 | 39.16334 | -28.55538 | 36166 ft | 414 kts | 232° |
| 2026-05-06 17:30 | 39.12266 | -28.60708 | 36162 ft | 415 kts | 232° |
| 2026-05-06 17:30 | 39.08162 | -28.65914 | 36182 ft | 412 kts | 231° |
| 2026-05-06 17:31 | 39.04089 | -28.71074 | 36179 ft | 413 kts | 231° |
| 2026-05-06 17:31 | 38.99987 | -28.76258 | 36185 ft | 413 kts | 232° |
| 2026-05-06 17:32 | 38.95901 | -28.81417 | 36182 ft | 414 kts | 232° |
| 2026-05-06 17:32 | 38.91800 | -28.86584 | 36187 ft | 414 kts | 232° |
| 2026-05-06 17:33 | 38.87680 | -28.91766 | 36179 ft | 413 kts | 232° |
| 2026-05-06 17:33 | 38.83598 | -28.96893 | 36182 ft | 414 kts | 232° |
| 2026-05-06 17:34 | 38.79481 | -29.02054 | 36181 ft | 415 kts | 232° |
| 2026-05-06 17:34 | 38.75372 | -29.07195 | 36183 ft | 414 kts | 232° |
| 2026-05-06 17:35 | 38.71273 | -29.12315 | 36176 ft | 414 kts | 233° |
| 2026-05-06 17:35 | 38.67128 | -29.17488 | 36181 ft | 415 kts | 232° |
| 2026-05-06 17:36 | 38.60940 | -29.25188 | 36179 ft | 416 kts | 232° |
| 2026-05-06 17:36 | 38.56797 | -29.30332 | 36179 ft | 415 kts | 232° |
| 2026-05-06 17:37 | 38.52670 | -29.35449 | 36184 ft | 415 kts | 232° |
| 2026-05-06 17:37 | 38.48528 | -29.40578 | 36179 ft | 418 kts | 233° |
| 2026-05-06 17:38 | 38.44367 | -29.45717 | 36191 ft | 415 kts | 233° |
| 2026-05-06 17:38 | 38.40218 | -29.50834 | 36186 ft | 416 kts | 232° |
| 2026-05-06 17:39 | 38.36048 | -29.55971 | 36208 ft | 420 kts | 233° |
| 2026-05-06 17:39 | 38.31892 | -29.61079 | 36191 ft | 416 kts | 233° |
| 2026-05-06 17:40 | 38.27671 | -29.66260 | 36221 ft | 419 kts | 232° |
| 2026-05-06 17:40 | 38.23519 | -29.71347 | 36217 ft | 419 kts | 233° |
| 2026-05-06 17:41 | 38.19294 | -29.76519 | 36217 ft | 423 kts | 232° |
| 2026-05-06 17:41 | 38.15072 | -29.81670 | 36220 ft | 419 kts | 232° |
| 2026-05-06 17:42 | 38.10871 | -29.86791 | 36215 ft | 418 kts | 232° |
| 2026-05-06 17:42 | 38.06641 | -29.91944 | 36215 ft | 424 kts | 233° |
| 2026-05-06 17:43 | 38.02405 | -29.97086 | 36220 ft | 421 kts | 233° |
| 2026-05-06 17:43 | 38.00282 | -29.99610 | 36426 ft | 426 kts | 231° |
| 2026-05-06 17:43 | 37.98033 | -30.02088 | 36220 ft | 422 kts | 231° |
| 2026-05-06 17:44 | 37.93636 | -30.06895 | 36219 ft | 421 kts | 230° |
| 2026-05-06 17:44 | 37.91407 | -30.09327 | 35894 ft | 423 kts | 230° |
| 2026-05-06 17:44 | 37.89205 | -30.11720 | 36096 ft | 421 kts | 230° |
| 2026-05-06 17:45 | 37.86986 | -30.14130 | 36208 ft | 424 kts | 230° |
| 2026-05-06 17:45 | 37.84735 | -30.16575 | 36208 ft | 426 kts | 230° |
| 2026-05-06 17:45 | 37.80231 | -30.21449 | 36202 ft | 425 kts | 230° |
| 2026-05-06 17:46 | 37.75726 | -30.26319 | 36192 ft | 429 kts | 230° |
| 2026-05-06 17:46 | 37.71213 | -30.31183 | 36206 ft | 430 kts | 230° |
| 2026-05-06 17:47 | 37.66653 | -30.36092 | 36196 ft | 430 kts | 230° |
| 2026-05-06 17:47 | 37.62122 | -30.40959 | 36199 ft | 430 kts | 230° |
| 2026-05-06 17:48 | 37.57544 | -30.45874 | 36509 ft | 432 kts | 230° |
| 2026-05-06 17:48 | 37.55264 | -30.48313 | 36153 ft | 428 kts | 230° |
| 2026-05-06 17:48 | 37.52992 | -30.50745 | 36185 ft | 432 kts | 230° |
| 2026-05-06 17:49 | 37.50694 | -30.53207 | 36332 ft | 436 kts | 230° |
| 2026-05-06 17:49 | 37.48399 | -30.55659 | 36195 ft | 431 kts | 230° |
| 2026-05-06 17:49 | 37.43897 | -30.60459 | 36193 ft | 426 kts | 230° |
| 2026-05-06 17:50 | 37.39358 | -30.65302 | 36197 ft | 432 kts | 229° |
| 2026-05-06 17:50 | 37.34783 | -30.70169 | 36216 ft | 433 kts | 230° |
| 2026-05-06 17:51 | 37.30200 | -30.75036 | 36214 ft | 432 kts | 229° |
| 2026-05-06 17:51 | 37.25579 | -30.79939 | 36211 ft | 435 kts | 229° |
| 2026-05-06 17:52 | 37.21012 | -30.84767 | 36215 ft | 429 kts | 230° |
| 2026-05-06 17:52 | 37.16394 | -30.89653 | 36225 ft | 434 kts | 230° |
| 2026-05-06 17:53 | 37.11805 | -30.94495 | 36225 ft | 435 kts | 230° |
| 2026-05-06 17:53 | 37.07136 | -30.99413 | 36226 ft | 435 kts | 229° |
| 2026-05-06 17:54 | 37.02464 | -31.04329 | 36224 ft | 442 kts | 229° |
| 2026-05-06 17:54 | 36.97800 | -31.09222 | 36223 ft | 438 kts | 229° |
| 2026-05-06 17:55 | 36.93157 | -31.14087 | 36227 ft | 435 kts | 230° |
| 2026-05-06 17:55 | 36.88455 | -31.19012 | 36212 ft | 441 kts | 230° |
| 2026-05-06 17:56 | 36.83808 | -31.23862 | 36208 ft | 434 kts | 230° |
| 2026-05-06 17:56 | 36.79125 | -31.28752 | 36208 ft | 440 kts | 230° |
| 2026-05-06 17:57 | 36.74456 | -31.33611 | 36212 ft | 437 kts | 230° |
| 2026-05-06 17:57 | 36.69786 | -31.38467 | 36218 ft | 440 kts | 230° |
| 2026-05-06 17:58 | 36.65079 | -31.43350 | 36213 ft | 436 kts | 230° |
| 2026-05-06 17:58 | 36.60434 | -31.48166 | 36214 ft | 440 kts | 230° |
| 2026-05-06 17:59 | 36.55708 | -31.53054 | 36217 ft | 437 kts | 230° |
| 2026-05-06 17:59 | 36.51063 | -31.57849 | 36223 ft | 436 kts | 230° |
| 2026-05-06 18:00 | 36.46405 | -31.62655 | 36214 ft | 439 kts | 230° |
| 2026-05-06 18:00 | 36.41695 | -31.67504 | 36236 ft | 439 kts | 230° |
| 2026-05-06 18:01 | 36.36995 | -31.72337 | 36238 ft | 443 kts | 230° |
| 2026-05-06 18:01 | 36.32255 | -31.77199 | 36238 ft | 442 kts | 229° |
| 2026-05-06 18:02 | 36.27522 | -31.82048 | 36238 ft | 441 kts | 230° |
| 2026-05-06 18:02 | 36.22778 | -31.86899 | 36238 ft | 443 kts | 230° |
| 2026-05-06 18:03 | 36.18053 | -31.91725 | 36253 ft | 442 kts | 229° |
| 2026-05-06 18:03 | 36.13326 | -31.96540 | 36259 ft | 439 kts | 230° |
| 2026-05-06 18:04 | 36.08600 | -32.01355 | 36260 ft | 443 kts | 230° |
| 2026-05-06 18:04 | 36.03859 | -32.06171 | 36262 ft | 443 kts | 230° |
| 2026-05-06 18:05 | 35.99084 | -32.11017 | 36263 ft | 443 kts | 230° |
| 2026-05-06 18:05 | 35.94348 | -32.15812 | 36264 ft | 441 kts | 230° |
| 2026-05-06 18:06 | 35.89560 | -32.20657 | 36262 ft | 444 kts | 229° |
| 2026-05-06 18:06 | 35.84813 | -32.25447 | 36250 ft | 442 kts | 230° |
| 2026-05-06 18:07 | 35.80035 | -32.30268 | 36236 ft | 447 kts | 229° |
| 2026-05-06 18:07 | 35.75216 | -32.35115 | 36238 ft | 446 kts | 230° |
| 2026-05-06 18:08 | 35.70406 | -32.39948 | 36232 ft | 445 kts | 229° |
| 2026-05-06 18:08 | 35.65602 | -32.44767 | 36229 ft | 445 kts | 230° |
| 2026-05-06 18:09 | 35.60814 | -32.49563 | 36231 ft | 446 kts | 230° |
| 2026-05-06 18:09 | 35.55989 | -32.54390 | 36230 ft | 447 kts | 230° |
| 2026-05-06 18:10 | 35.51201 | -32.59169 | 36240 ft | 449 kts | 230° |
| 2026-05-06 18:10 | 35.46362 | -32.63992 | 36230 ft | 447 kts | 230° |
| 2026-05-06 18:11 | 35.42322 | -32.68016 | 36248 ft | 450 kts | 229° |
| 2026-05-06 18:11 | 35.36645 | -32.73656 | 36252 ft | 450 kts | 229° |
| 2026-05-06 18:12 | 35.31795 | -32.78468 | 36262 ft | 451 kts | 229° |
| 2026-05-06 18:12 | 35.26928 | -32.83288 | 36254 ft | 450 kts | 229° |
| 2026-05-06 18:13 | 35.22063 | -32.88099 | 36269 ft | 451 kts | 229° |
| 2026-05-06 18:13 | 35.17185 | -32.92913 | 36270 ft | 449 kts | 229° |
| 2026-05-06 18:14 | 35.12334 | -32.97697 | 36285 ft | 452 kts | 229° |
| 2026-05-06 18:14 | 35.07448 | -33.02504 | 36284 ft | 449 kts | 229° |
| 2026-05-06 18:15 | 35.02556 | -33.07314 | 36281 ft | 451 kts | 229° |
| 2026-05-06 18:15 | 34.97691 | -33.12084 | 36284 ft | 450 kts | 229° |
| 2026-05-06 18:16 | 34.92823 | -33.16855 | 36283 ft | 452 kts | 229° |
| 2026-05-06 18:16 | 34.87918 | -33.21650 | 36270 ft | 450 kts | 229° |
| 2026-05-06 18:17 | 34.83025 | -33.26431 | 36270 ft | 455 kts | 229° |
| 2026-05-06 18:17 | 34.78096 | -33.31235 | 36268 ft | 452 kts | 229° |
| 2026-05-06 18:18 | 34.73175 | -33.36024 | 36267 ft | 453 kts | 229° |
| 2026-05-06 18:18 | 34.68237 | -33.40824 | 36267 ft | 454 kts | 229° |
| 2026-05-06 18:19 | 34.63329 | -33.45587 | 36262 ft | 456 kts | 229° |
| 2026-05-06 18:19 | 34.58386 | -33.50375 | 36254 ft | 455 kts | 229° |
| 2026-05-06 18:20 | 34.53442 | -33.55157 | 36256 ft | 455 kts | 229° |
| 2026-05-06 18:20 | 34.48483 | -33.59945 | 36259 ft | 453 kts | 229° |
| 2026-05-06 18:21 | 34.43548 | -33.64706 | 36256 ft | 456 kts | 228° |
| 2026-05-06 18:21 | 34.38573 | -33.69496 | 36275 ft | 457 kts | 227° |
| 2026-05-06 18:22 | 34.33625 | -33.74251 | 36275 ft | 457 kts | 227° |
| 2026-05-06 18:22 | 34.28651 | -33.79025 | 36279 ft | 457 kts | 227° |
| 2026-05-06 18:23 | 34.23647 | -33.83820 | 36278 ft | 456 kts | 227° |
| 2026-05-06 18:23 | 34.18700 | -33.88553 | 36283 ft | 457 kts | 227° |
| 2026-05-06 18:24 | 34.13691 | -33.93341 | 36284 ft | 459 kts | 227° |
| 2026-05-06 18:24 | 34.08698 | -33.98102 | 36282 ft | 458 kts | 227° |
| 2026-05-06 18:25 | 34.03675 | -34.02886 | 36272 ft | 461 kts | 227° |
| 2026-05-06 18:25 | 33.98641 | -34.07671 | 36265 ft | 459 kts | 227° |
| 2026-05-06 18:26 | 33.93644 | -34.12416 | 36264 ft | 461 kts | 227° |
| 2026-05-06 18:26 | 33.88600 | -34.17199 | 36251 ft | 462 kts | 227° |
| 2026-05-06 18:27 | 33.83556 | -34.21971 | 36258 ft | 460 kts | 227° |
| 2026-05-06 18:27 | 33.78537 | -34.26716 | 36250 ft | 461 kts | 227° |
| 2026-05-06 18:28 | 33.73478 | -34.31487 | 36256 ft | 460 kts | 227° |
| 2026-05-06 18:28 | 33.68446 | -34.36230 | 36255 ft | 462 kts | 227° |
| 2026-05-06 18:29 | 33.63408 | -34.40967 | 36254 ft | 460 kts | 227° |
| 2026-05-06 18:29 | 33.58369 | -34.45700 | 36251 ft | 460 kts | 227° |
| 2026-05-06 18:30 | 33.53352 | -34.50407 | 36254 ft | 461 kts | 226° |
| 2026-05-06 18:30 | 33.48309 | -34.55128 | 36254 ft | 461 kts | 226° |
| 2026-05-06 18:31 | 33.43243 | -34.59864 | 36253 ft | 460 kts | 226° |
| 2026-05-06 18:31 | 33.38199 | -34.64574 | 36254 ft | 462 kts | 226° |
| 2026-05-06 18:32 | 33.33136 | -34.69294 | 36265 ft | 463 kts | 226° |
| 2026-05-06 18:32 | 33.28064 | -34.74013 | 36268 ft | 462 kts | 226° |
| 2026-05-06 18:33 | 33.22996 | -34.78723 | 36272 ft | 461 kts | 226° |
| 2026-05-06 18:33 | 33.17919 | -34.83434 | 36283 ft | 461 kts | 226° |
| 2026-05-06 18:34 | 33.12824 | -34.88155 | 36281 ft | 461 kts | 225° |
| 2026-05-06 18:34 | 33.07760 | -34.92840 | 36285 ft | 461 kts | 225° |
| 2026-05-06 18:35 | 33.02677 | -34.97535 | 36287 ft | 461 kts | 225° |
| 2026-05-06 18:35 | 32.97691 | -35.02298 | 36287 ft | 458 kts | 230° |
| 2026-05-06 18:36 | 32.93010 | -35.07399 | 36286 ft | 456 kts | 230° |
| 2026-05-06 18:36 | 32.88312 | -35.12491 | 36271 ft | 456 kts | 230° |
| 2026-05-06 18:37 | 32.84402 | -35.16704 | 36274 ft | 458 kts | 230° |
| 2026-05-06 18:37 | 32.78883 | -35.22622 | 36274 ft | 456 kts | 230° |
| 2026-05-06 18:38 | 32.74189 | -35.27640 | 36274 ft | 457 kts | 230° |
| 2026-05-06 18:38 | 32.69445 | -35.32700 | 36272 ft | 458 kts | 230° |
| 2026-05-06 18:39 | 32.64735 | -35.37714 | 36274 ft | 456 kts | 230° |
| 2026-05-06 18:40 | 32.57637 | -35.45256 | 36278 ft | 458 kts | 229° |
| 2026-05-06 18:40 | 32.52888 | -35.50292 | 36271 ft | 458 kts | 230° |
| 2026-05-06 18:41 | 32.48163 | -35.55294 | 36274 ft | 456 kts | 230° |
| 2026-05-06 18:41 | 32.43414 | -35.60316 | 36271 ft | 457 kts | 230° |
| 2026-05-06 18:42 | 32.38673 | -35.65320 | 36275 ft | 458 kts | 229° |
| 2026-05-06 18:42 | 32.33893 | -35.70360 | 36286 ft | 460 kts | 229° |
| 2026-05-06 18:43 | 32.29164 | -35.75335 | 36286 ft | 456 kts | 229° |
| 2026-05-06 18:43 | 32.24417 | -35.80325 | 36284 ft | 457 kts | 229° |
| 2026-05-06 18:44 | 32.19675 | -35.85302 | 36285 ft | 459 kts | 229° |
| 2026-05-06 18:44 | 32.14916 | -35.90290 | 36283 ft | 457 kts | 229° |
| 2026-05-06 18:45 | 32.10174 | -35.95250 | 36285 ft | 456 kts | 229° |
| 2026-05-06 18:45 | 32.05399 | -36.00241 | 36284 ft | 457 kts | 229° |
| 2026-05-06 18:46 | 32.00629 | -36.05218 | 36283 ft | 459 kts | 229° |
| 2026-05-06 18:46 | 31.95875 | -36.10171 | 36287 ft | 460 kts | 229° |
| 2026-05-06 18:47 | 31.91088 | -36.15152 | 36284 ft | 459 kts | 229° |
| 2026-05-06 18:47 | 31.86324 | -36.20099 | 36272 ft | 459 kts | 229° |
| 2026-05-06 18:48 | 31.81504 | -36.25100 | 36270 ft | 458 kts | 229° |
| 2026-05-06 18:48 | 31.76728 | -36.30048 | 36272 ft | 458 kts | 229° |
| 2026-05-06 18:49 | 31.71963 | -36.34977 | 36269 ft | 459 kts | 229° |
| 2026-05-06 18:49 | 31.67183 | -36.39914 | 36267 ft | 459 kts | 229° |
| 2026-05-06 18:50 | 31.62365 | -36.44883 | 36267 ft | 459 kts | 229° |
| 2026-05-06 18:50 | 31.57578 | -36.49813 | 36265 ft | 458 kts | 229° |
| 2026-05-06 18:51 | 31.52778 | -36.54751 | 36264 ft | 458 kts | 229° |
| 2026-05-06 18:51 | 31.47982 | -36.59679 | 36262 ft | 464 kts | 229° |
| 2026-05-06 18:51 | 31.45535 | -36.62192 | 36425 ft | 468 kts | 229° |
| 2026-05-06 18:52 | 31.43096 | -36.64690 | 36885 ft | 466 kts | 229° |
| 2026-05-06 18:52 | 31.40668 | -36.67174 | 37452 ft | 461 kts | 229° |
| 2026-05-06 18:52 | 31.38270 | -36.69627 | 37990 ft | 457 kts | 229° |
| 2026-05-06 18:52 | 31.35895 | -36.72056 | 38270 ft | 457 kts | 229° |
| 2026-05-06 18:53 | 31.33481 | -36.74527 | 38268 ft | 460 kts | 229° |
| 2026-05-06 18:53 | 31.28645 | -36.79467 | 38270 ft | 460 kts | 229° |
| 2026-05-06 18:54 | 31.23849 | -36.84356 | 38271 ft | 459 kts | 229° |
| 2026-05-06 18:54 | 31.19011 | -36.89284 | 38268 ft | 460 kts | 229° |
| 2026-05-06 18:55 | 31.14191 | -36.94185 | 38268 ft | 460 kts | 229° |
| 2026-05-06 18:55 | 31.09362 | -36.99089 | 38269 ft | 460 kts | 229° |
| 2026-05-06 18:56 | 31.04526 | -37.03994 | 38273 ft | 459 kts | 229° |
| 2026-05-06 18:56 | 30.99703 | -37.08877 | 38284 ft | 460 kts | 229° |
| 2026-05-06 18:57 | 30.94892 | -37.13743 | 38278 ft | 460 kts | 229° |
| 2026-05-06 18:57 | 30.90051 | -37.18631 | 38278 ft | 461 kts | 229° |
| 2026-05-06 18:58 | 30.85190 | -37.23533 | 38267 ft | 460 kts | 229° |
| 2026-05-06 18:58 | 30.80366 | -37.28391 | 38266 ft | 461 kts | 229° |
| 2026-05-06 18:59 | 30.75522 | -37.33263 | 38263 ft | 460 kts | 229° |
| 2026-05-06 18:59 | 30.70693 | -37.38113 | 38257 ft | 461 kts | 229° |
| 2026-05-06 19:00 | 30.65852 | -37.42967 | 38265 ft | 459 kts | 229° |
| 2026-05-06 19:00 | 30.61012 | -37.47815 | 38266 ft | 459 kts | 228° |
| 2026-05-06 19:01 | 30.56178 | -37.52649 | 38265 ft | 459 kts | 229° |
| 2026-05-06 19:01 | 30.51326 | -37.57495 | 38263 ft | 458 kts | 228° |
| 2026-05-06 19:02 | 30.46518 | -37.62291 | 38263 ft | 460 kts | 228° |
| 2026-05-06 19:02 | 30.41643 | -37.67147 | 38277 ft | 459 kts | 228° |
| 2026-05-06 19:03 | 30.36808 | -37.71957 | 38274 ft | 459 kts | 227° |
| 2026-05-06 19:03 | 30.31964 | -37.76768 | 38271 ft | 459 kts | 227° |
| 2026-05-06 19:04 | 30.27095 | -37.81598 | 38268 ft | 460 kts | 227° |
| 2026-05-06 19:04 | 30.22239 | -37.86409 | 38271 ft | 460 kts | 227° |
| 2026-05-06 19:05 | 30.17378 | -37.91217 | 38266 ft | 459 kts | 227° |
| 2026-05-06 19:05 | 30.12547 | -37.95990 | 38266 ft | 459 kts | 227° |
| 2026-05-06 19:06 | 30.07692 | -38.00781 | 38265 ft | 459 kts | 227° |
| 2026-05-06 19:06 | 30.02839 | -38.05564 | 38267 ft | 461 kts | 227° |
| 2026-05-06 19:07 | 29.97963 | -38.10360 | 38264 ft | 458 kts | 227° |
| 2026-05-06 19:07 | 29.93093 | -38.15147 | 38261 ft | 460 kts | 227° |
| 2026-05-06 19:08 | 29.88232 | -38.19918 | 38251 ft | 457 kts | 227° |
| 2026-05-06 19:08 | 29.83381 | -38.24673 | 38254 ft | 458 kts | 227° |
| 2026-05-06 19:09 | 29.78502 | -38.29448 | 38252 ft | 459 kts | 227° |
| 2026-05-06 19:09 | 29.73633 | -38.34209 | 38251 ft | 460 kts | 227° |
| 2026-05-06 19:10 | 29.68760 | -38.38965 | 38251 ft | 459 kts | 227° |
| 2026-05-06 19:10 | 29.63884 | -38.43719 | 38252 ft | 460 kts | 227° |
| 2026-05-06 19:11 | 29.59011 | -38.48463 | 38250 ft | 460 kts | 227° |
| 2026-05-06 19:11 | 29.54139 | -38.53201 | 38250 ft | 459 kts | 226° |
| 2026-05-06 19:12 | 29.49260 | -38.57939 | 38250 ft | 460 kts | 227° |
| 2026-05-06 19:12 | 29.44356 | -38.62695 | 38242 ft | 460 kts | 227° |
| 2026-05-06 19:13 | 29.39468 | -38.67430 | 38255 ft | 460 kts | 226° |
| 2026-05-06 19:13 | 29.34575 | -38.72163 | 38253 ft | 461 kts | 226° |
| 2026-05-06 19:14 | 29.29663 | -38.76908 | 38249 ft | 461 kts | 226° |
| 2026-05-06 19:14 | 29.24741 | -38.81658 | 38246 ft | 462 kts | 226° |
| 2026-05-06 19:15 | 29.19872 | -38.86348 | 38247 ft | 460 kts | 226° |
| 2026-05-06 19:15 | 29.14949 | -38.91087 | 38248 ft | 461 kts | 226° |
| 2026-05-06 19:16 | 29.10050 | -38.95794 | 38247 ft | 461 kts | 226° |
| 2026-05-06 19:16 | 29.05140 | -39.00507 | 38243 ft | 462 kts | 226° |
| 2026-05-06 19:17 | 29.00218 | -39.05225 | 38244 ft | 463 kts | 226° |
| 2026-05-06 19:17 | 28.95288 | -39.09944 | 38243 ft | 460 kts | 225° |
| 2026-05-06 19:18 | 28.90391 | -39.14628 | 38242 ft | 463 kts | 225° |
| 2026-05-06 19:18 | 28.85453 | -39.19342 | 38235 ft | 461 kts | 225° |
| 2026-05-06 19:19 | 28.80524 | -39.24043 | 38237 ft | 462 kts | 225° |
| 2026-05-06 19:19 | 28.75595 | -39.28737 | 38236 ft | 462 kts | 225° |
| 2026-05-06 19:20 | 28.70647 | -39.33445 | 38235 ft | 462 kts | 225° |
| 2026-05-06 19:20 | 28.65720 | -39.38126 | 38235 ft | 462 kts | 225° |
| 2026-05-06 19:21 | 28.60804 | -39.42790 | 38234 ft | 462 kts | 225° |
| 2026-05-06 19:21 | 28.55869 | -39.47467 | 38236 ft | 463 kts | 225° |
| 2026-05-06 19:22 | 28.50898 | -39.52171 | 38232 ft | 464 kts | 225° |
| 2026-05-06 19:22 | 28.45951 | -39.56848 | 38233 ft | 464 kts | 225° |
| 2026-05-06 19:23 | 28.40974 | -39.61546 | 38228 ft | 465 kts | 225° |
| 2026-05-06 19:23 | 28.35999 | -39.66237 | 38238 ft | 464 kts | 225° |
| 2026-05-06 19:24 | 28.31053 | -39.70895 | 38240 ft | 466 kts | 225° |
| 2026-05-06 19:24 | 28.26043 | -39.75606 | 38239 ft | 466 kts | 225° |
| 2026-05-06 19:25 | 28.21056 | -39.80291 | 38238 ft | 466 kts | 225° |
| 2026-05-06 19:25 | 28.16081 | -39.84958 | 38244 ft | 467 kts | 224° |
| 2026-05-06 19:26 | 28.11067 | -39.89656 | 38234 ft | 467 kts | 224° |
| 2026-05-06 19:26 | 28.06071 | -39.94331 | 38227 ft | 467 kts | 224° |
| 2026-05-06 19:27 | 28.01046 | -39.99031 | 38216 ft | 468 kts | 225° |
| 2026-05-06 19:27 | 27.96652 | -40.04308 | 38219 ft | 461 kts | 234° |
| 2026-05-06 19:28 | 27.92506 | -40.09846 | 38218 ft | 461 kts | 234° |
| 2026-05-06 19:28 | 27.88361 | -40.15348 | 38212 ft | 461 kts | 234° |
| 2026-05-06 19:29 | 27.84203 | -40.20845 | 38213 ft | 460 kts | 234° |
| 2026-05-06 19:29 | 27.80061 | -40.26307 | 38210 ft | 460 kts | 234° |
| 2026-05-06 19:30 | 27.75897 | -40.31786 | 38210 ft | 460 kts | 234° |
| 2026-05-06 19:30 | 27.71743 | -40.37242 | 38211 ft | 460 kts | 234° |
| 2026-05-06 19:31 | 27.67555 | -40.42736 | 38212 ft | 460 kts | 234° |
| 2026-05-06 19:31 | 27.61317 | -40.50903 | 38214 ft | 461 kts | 234° |
| 2026-05-06 19:32 | 27.57138 | -40.56366 | 38214 ft | 460 kts | 234° |
| 2026-05-06 19:32 | 27.52942 | -40.61845 | 38212 ft | 460 kts | 234° |
| 2026-05-06 19:33 | 27.48781 | -40.67269 | 38223 ft | 460 kts | 233° |
| 2026-05-06 19:33 | 27.44603 | -40.72710 | 38224 ft | 459 kts | 233° |
| 2026-05-06 19:34 | 27.40418 | -40.78153 | 38221 ft | 460 kts | 233° |
| 2026-05-06 19:34 | 27.36235 | -40.83586 | 38223 ft | 460 kts | 233° |
| 2026-05-06 19:35 | 27.32077 | -40.88981 | 38221 ft | 460 kts | 233° |
| 2026-05-06 19:35 | 27.27875 | -40.94424 | 38219 ft | 460 kts | 233° |
| 2026-05-06 19:36 | 27.23668 | -40.99868 | 38220 ft | 461 kts | 233° |
| 2026-05-06 19:36 | 27.19475 | -41.05288 | 38217 ft | 461 kts | 233° |
| 2026-05-06 19:37 | 27.15278 | -41.10705 | 38225 ft | 461 kts | 233° |
| 2026-05-06 19:37 | 27.11784 | -41.15209 | 38217 ft | 461 kts | 233° |
| 2026-05-06 19:38 | 27.06869 | -41.21538 | 38221 ft | 461 kts | 233° |
| 2026-05-06 19:38 | 27.02661 | -41.26951 | 38219 ft | 461 kts | 233° |
| 2026-05-06 19:39 | 26.98452 | -41.32355 | 38218 ft | 461 kts | 233° |
| 2026-05-06 19:39 | 26.94252 | -41.37743 | 38215 ft | 461 kts | 233° |
| 2026-05-06 19:40 | 26.90020 | -41.43165 | 38215 ft | 461 kts | 233° |
| 2026-05-06 19:40 | 26.85799 | -41.48567 | 38205 ft | 462 kts | 233° |
| 2026-05-06 19:41 | 26.81572 | -41.53970 | 38206 ft | 462 kts | 233° |
| 2026-05-06 19:41 | 26.77373 | -41.59329 | 38209 ft | 462 kts | 233° |
| 2026-05-06 19:42 | 26.73110 | -41.64764 | 38202 ft | 462 kts | 233° |
| 2026-05-06 19:42 | 26.68877 | -41.70155 | 38207 ft | 462 kts | 232° |
| 2026-05-06 19:43 | 26.64661 | -41.75516 | 38194 ft | 463 kts | 232° |
| 2026-05-06 19:43 | 26.60403 | -41.80924 | 38194 ft | 462 kts | 232° |
| 2026-05-06 19:44 | 26.56163 | -41.86304 | 38192 ft | 463 kts | 232° |
| 2026-05-06 19:44 | 26.51913 | -41.91689 | 38190 ft | 463 kts | 232° |
| 2026-05-06 19:45 | 26.47641 | -41.97096 | 38190 ft | 463 kts | 232° |
| 2026-05-06 19:45 | 26.43404 | -42.02452 | 38187 ft | 463 kts | 232° |
| 2026-05-06 19:46 | 26.39139 | -42.07836 | 38188 ft | 464 kts | 232° |
| 2026-05-06 19:46 | 26.34874 | -42.13215 | 38187 ft | 463 kts | 232° |
| 2026-05-06 19:47 | 26.30596 | -42.18603 | 38186 ft | 464 kts | 232° |
| 2026-05-06 19:47 | 26.26320 | -42.23981 | 38187 ft | 463 kts | 232° |
| 2026-05-06 19:48 | 26.22054 | -42.29342 | 38189 ft | 463 kts | 232° |
| 2026-05-06 19:48 | 26.17800 | -42.34680 | 38189 ft | 463 kts | 232° |
| 2026-05-06 19:49 | 26.13503 | -42.40066 | 38188 ft | 464 kts | 232° |
| 2026-05-06 19:49 | 26.09236 | -42.45408 | 38188 ft | 464 kts | 232° |
| 2026-05-06 19:50 | 26.04959 | -42.50756 | 38188 ft | 464 kts | 232° |
| 2026-05-06 19:50 | 26.00654 | -42.56133 | 38184 ft | 465 kts | 232° |
| 2026-05-06 19:51 | 25.96367 | -42.61481 | 38186 ft | 465 kts | 232° |
| 2026-05-06 19:51 | 25.92063 | -42.66844 | 38192 ft | 465 kts | 232° |
| 2026-05-06 19:52 | 25.87764 | -42.72194 | 38181 ft | 463 kts | 232° |
| 2026-05-06 19:52 | 25.83481 | -42.77518 | 38181 ft | 464 kts | 232° |
| 2026-05-06 19:53 | 25.79187 | -42.82849 | 38173 ft | 465 kts | 232° |
| 2026-05-06 19:53 | 25.74868 | -42.88206 | 38178 ft | 465 kts | 232° |
| 2026-05-06 19:54 | 25.70561 | -42.93541 | 38183 ft | 466 kts | 232° |
| 2026-05-06 19:54 | 25.66219 | -42.98913 | 38183 ft | 467 kts | 232° |
| 2026-05-06 19:55 | 25.61894 | -43.04256 | 38181 ft | 466 kts | 232° |
| 2026-05-06 19:55 | 25.57588 | -43.09572 | 38176 ft | 467 kts | 232° |
| 2026-05-06 19:56 | 25.53231 | -43.14944 | 38178 ft | 466 kts | 232° |
| 2026-05-06 19:56 | 25.48897 | -43.20280 | 38182 ft | 466 kts | 232° |
| 2026-05-06 19:57 | 25.44580 | -43.25590 | 38175 ft | 466 kts | 232° |
| 2026-05-06 19:57 | 25.40242 | -43.30919 | 38176 ft | 465 kts | 231° |
| 2026-05-06 19:58 | 25.35916 | -43.36228 | 38170 ft | 466 kts | 231° |
| 2026-05-06 19:58 | 25.31582 | -43.41540 | 38170 ft | 467 kts | 231° |
| 2026-05-06 19:59 | 25.27237 | -43.46859 | 38163 ft | 467 kts | 231° |
| 2026-05-06 19:59 | 25.22889 | -43.52177 | 38164 ft | 466 kts | 231° |
| 2026-05-06 20:00 | 25.18544 | -43.57484 | 38161 ft | 468 kts | 231° |
| 2026-05-06 20:00 | 25.14194 | -43.62791 | 38159 ft | 467 kts | 231° |
| 2026-05-06 20:01 | 25.09830 | -43.68109 | 38160 ft | 467 kts | 231° |
| 2026-05-06 20:01 | 25.05489 | -43.73393 | 38161 ft | 466 kts | 231° |
| 2026-05-06 20:02 | 25.01117 | -43.78709 | 38158 ft | 467 kts | 231° |
| 2026-05-06 20:02 | 24.96752 | -43.84011 | 38158 ft | 467 kts | 231° |
| 2026-05-06 20:03 | 24.92411 | -43.89276 | 38158 ft | 466 kts | 230° |
| 2026-05-06 20:03 | 24.88059 | -43.94550 | 38152 ft | 467 kts | 231° |
| 2026-05-06 20:04 | 24.83667 | -43.99867 | 38150 ft | 467 kts | 231° |
| 2026-05-06 20:04 | 24.79303 | -44.05142 | 38152 ft | 467 kts | 231° |
| 2026-05-06 20:05 | 24.74942 | -44.10409 | 38150 ft | 467 kts | 231° |
| 2026-05-06 20:05 | 24.70568 | -44.15684 | 38149 ft | 467 kts | 231° |
| 2026-05-06 20:06 | 24.66197 | -44.20952 | 38153 ft | 467 kts | 231° |
| 2026-05-06 20:06 | 24.61834 | -44.26202 | 38154 ft | 467 kts | 231° |
| 2026-05-06 20:07 | 24.57438 | -44.31488 | 38152 ft | 468 kts | 231° |
| 2026-05-06 20:07 | 24.53076 | -44.36725 | 38151 ft | 467 kts | 231° |
| 2026-05-06 20:08 | 24.48677 | -44.42002 | 38152 ft | 466 kts | 231° |
| 2026-05-06 20:08 | 24.44306 | -44.47240 | 38152 ft | 467 kts | 230° |
| 2026-05-06 20:09 | 24.39929 | -44.52480 | 38413 ft | 470 kts | 231° |
| 2026-05-06 20:09 | 24.37718 | -44.55123 | 38827 ft | 467 kts | 231° |
| 2026-05-06 20:09 | 24.35519 | -44.57750 | 39227 ft | 465 kts | 231° |
| 2026-05-06 20:10 | 24.33335 | -44.60359 | 39497 ft | 465 kts | 231° |
| 2026-05-06 20:10 | 24.31142 | -44.62978 | 39692 ft | 465 kts | 231° |
| 2026-05-06 20:10 | 24.28968 | -44.65572 | 39916 ft | 465 kts | 230° |
| 2026-05-06 20:10 | 24.26777 | -44.68185 | 40167 ft | 464 kts | 230° |
| 2026-05-06 20:11 | 24.22397 | -44.73405 | 40159 ft | 465 kts | 230° |
| 2026-05-06 20:11 | 24.18018 | -44.78618 | 40160 ft | 464 kts | 230° |
| 2026-05-06 20:12 | 24.13658 | -44.83802 | 40161 ft | 464 kts | 230° |
| 2026-05-06 20:12 | 24.09278 | -44.89003 | 40160 ft | 464 kts | 230° |
| 2026-05-06 20:13 | 24.04904 | -44.94192 | 40159 ft | 463 kts | 230° |
| 2026-05-06 20:13 | 24.00437 | -44.99263 | 40160 ft | 466 kts | 223° |
| 2026-05-06 20:14 | 23.95075 | -45.03379 | 40152 ft | 471 kts | 216° |
| 2026-05-06 20:14 | 23.89578 | -45.07264 | 40157 ft | 470 kts | 216° |
| 2026-05-06 20:15 | 23.84094 | -45.11118 | 40154 ft | 470 kts | 216° |
| 2026-05-06 20:15 | 23.78549 | -45.15002 | 40144 ft | 470 kts | 216° |
| 2026-05-06 20:16 | 23.73038 | -45.18853 | 40142 ft | 471 kts | 216° |
| 2026-05-06 20:16 | 23.67540 | -45.22689 | 40142 ft | 469 kts | 216° |
| 2026-05-06 20:17 | 23.62020 | -45.26535 | 40134 ft | 471 kts | 216° |
| 2026-05-06 20:17 | 23.56488 | -45.30385 | 40134 ft | 471 kts | 216° |
| 2026-05-06 20:18 | 23.50966 | -45.34224 | 40134 ft | 470 kts | 216° |
| 2026-05-06 20:18 | 23.45456 | -45.38049 | 40132 ft | 470 kts | 216° |
| 2026-05-06 20:19 | 23.39958 | -45.41864 | 40132 ft | 471 kts | 216° |
| 2026-05-06 20:19 | 23.34415 | -45.45705 | 40128 ft | 469 kts | 216° |
| 2026-05-06 20:20 | 23.28901 | -45.49522 | 40127 ft | 468 kts | 216° |
| 2026-05-06 20:20 | 23.23419 | -45.53314 | 40125 ft | 469 kts | 216° |
| 2026-05-06 20:21 | 23.17877 | -45.57143 | 40123 ft | 469 kts | 216° |
| 2026-05-06 20:21 | 23.12380 | -45.60938 | 40120 ft | 469 kts | 216° |
| 2026-05-06 20:22 | 23.06851 | -45.64750 | 40114 ft | 469 kts | 216° |
| 2026-05-06 20:22 | 23.01342 | -45.68545 | 40119 ft | 469 kts | 215° |
| 2026-05-06 20:23 | 22.95816 | -45.72348 | 40120 ft | 468 kts | 215° |
| 2026-05-06 20:23 | 22.90319 | -45.76127 | 40121 ft | 468 kts | 215° |
| 2026-05-06 20:24 | 22.84850 | -45.79884 | 40111 ft | 468 kts | 215° |
| 2026-05-06 20:24 | 22.79341 | -45.83664 | 40114 ft | 468 kts | 215° |
| 2026-05-06 20:25 | 22.73816 | -45.87452 | 40110 ft | 469 kts | 215° |
| 2026-05-06 20:25 | 22.68305 | -45.91227 | 40111 ft | 468 kts | 215° |
| 2026-05-06 20:26 | 22.62812 | -45.94985 | 40106 ft | 468 kts | 215° |
| 2026-05-06 20:26 | 22.57284 | -45.98763 | 40106 ft | 468 kts | 215° |
| 2026-05-06 20:27 | 22.51772 | -46.02527 | 40102 ft | 467 kts | 215° |
| 2026-05-06 20:27 | 22.46292 | -46.06266 | 40107 ft | 468 kts | 215° |
| 2026-05-06 20:28 | 22.40751 | -46.10043 | 40103 ft | 469 kts | 215° |
| 2026-05-06 20:28 | 22.35216 | -46.13812 | 40103 ft | 470 kts | 215° |
| 2026-05-06 20:29 | 22.29674 | -46.17583 | 40101 ft | 470 kts | 215° |
| 2026-05-06 20:29 | 22.24142 | -46.21342 | 40100 ft | 470 kts | 215° |
| 2026-05-06 20:30 | 22.15829 | -46.26985 | 40095 ft | 469 kts | 215° |
| 2026-05-06 20:31 | 22.10307 | -46.30730 | 40098 ft | 469 kts | 215° |
| 2026-05-06 20:31 | 22.04791 | -46.34466 | 40091 ft | 469 kts | 215° |
| 2026-05-06 20:32 | 21.99244 | -46.38221 | 40092 ft | 470 kts | 215° |
| 2026-05-06 20:32 | 21.93698 | -46.41970 | 40096 ft | 471 kts | 215° |
| 2026-05-06 20:33 | 21.88140 | -46.45725 | 40092 ft | 470 kts | 215° |
| 2026-05-06 20:33 | 21.82597 | -46.49465 | 40091 ft | 470 kts | 215° |
| 2026-05-06 20:34 | 21.77062 | -46.53198 | 40091 ft | 471 kts | 215° |
| 2026-05-06 20:34 | 21.71495 | -46.56948 | 40094 ft | 470 kts | 215° |
| 2026-05-06 20:35 | 21.65917 | -46.60702 | 40092 ft | 471 kts | 215° |
| 2026-05-06 20:35 | 21.60378 | -46.64426 | 40091 ft | 471 kts | 215° |
| 2026-05-06 20:36 | 21.54828 | -46.68155 | 40095 ft | 471 kts | 214° |
| 2026-05-06 20:36 | 21.49261 | -46.71891 | 40096 ft | 471 kts | 214° |
| 2026-05-06 20:37 | 21.43704 | -46.75618 | 40095 ft | 471 kts | 214° |
| 2026-05-06 20:37 | 21.38129 | -46.79352 | 40096 ft | 470 kts | 214° |
| 2026-05-06 20:38 | 21.32576 | -46.83070 | 40094 ft | 471 kts | 214° |
| 2026-05-06 20:38 | 21.26988 | -46.86807 | 40094 ft | 471 kts | 214° |
| 2026-05-06 20:39 | 21.21437 | -46.90515 | 40101 ft | 471 kts | 214° |
| 2026-05-06 20:39 | 21.15852 | -46.94243 | 40094 ft | 471 kts | 214° |
| 2026-05-06 20:40 | 21.10286 | -46.97955 | 40094 ft | 472 kts | 214° |
| 2026-05-06 20:40 | 21.04701 | -47.01677 | 40097 ft | 472 kts | 214° |
| 2026-05-06 20:41 | 20.99162 | -47.05364 | 40098 ft | 471 kts | 214° |
| 2026-05-06 20:41 | 20.93579 | -47.09078 | 40098 ft | 472 kts | 214° |
| 2026-05-06 20:42 | 20.87984 | -47.12796 | 40091 ft | 470 kts | 214° |
| 2026-05-06 20:42 | 20.82440 | -47.16476 | 40089 ft | 470 kts | 214° |
| 2026-05-06 20:43 | 20.76844 | -47.20189 | 40087 ft | 471 kts | 214° |
| 2026-05-06 20:43 | 20.71276 | -47.23879 | 40087 ft | 471 kts | 214° |
| 2026-05-06 20:44 | 20.65663 | -47.27596 | 40087 ft | 472 kts | 214° |
| 2026-05-06 20:44 | 20.60084 | -47.31288 | 40085 ft | 471 kts | 214° |
| 2026-05-06 20:45 | 20.54502 | -47.34977 | 40086 ft | 471 kts | 214° |
| 2026-05-06 20:45 | 20.48926 | -47.38660 | 40083 ft | 471 kts | 214° |
| 2026-05-06 20:46 | 20.43325 | -47.42357 | 40081 ft | 471 kts | 214° |
| 2026-05-06 20:46 | 20.37770 | -47.46019 | 40083 ft | 471 kts | 214° |
| 2026-05-06 20:47 | 20.32197 | -47.49691 | 40078 ft | 471 kts | 214° |
| 2026-05-06 20:47 | 20.26603 | -47.53373 | 40079 ft | 471 kts | 214° |
| 2026-05-06 20:48 | 20.21026 | -47.57040 | 40078 ft | 471 kts | 214° |
| 2026-05-06 20:48 | 20.15431 | -47.60717 | 40072 ft | 471 kts | 214° |
| 2026-05-06 20:49 | 20.09826 | -47.64396 | 40073 ft | 471 kts | 214° |
| 2026-05-06 20:49 | 20.04238 | -47.68062 | 40078 ft | 472 kts | 214° |
| 2026-05-06 20:50 | 19.98635 | -47.71733 | 40078 ft | 471 kts | 214° |
| 2026-05-06 20:50 | 19.93066 | -47.75380 | 40077 ft | 472 kts | 214° |
| 2026-05-06 20:51 | 19.87440 | -47.79062 | 40073 ft | 471 kts | 214° |
| 2026-05-06 20:51 | 19.81849 | -47.82717 | 40075 ft | 471 kts | 214° |
| 2026-05-06 20:52 | 19.76281 | -47.86354 | 40075 ft | 471 kts | 214° |
| 2026-05-06 20:52 | 19.70668 | -47.90017 | 40075 ft | 470 kts | 214° |
| 2026-05-06 20:53 | 19.65122 | -47.93634 | 40075 ft | 470 kts | 214° |
| 2026-05-06 20:53 | 19.59547 | -47.97267 | 40074 ft | 471 kts | 214° |
| 2026-05-06 20:54 | 19.53963 | -48.00902 | 40075 ft | 470 kts | 214° |
| 2026-05-06 20:54 | 19.48387 | -48.04530 | 40074 ft | 471 kts | 214° |
| 2026-05-06 20:55 | 19.42802 | -48.08160 | 40075 ft | 470 kts | 214° |
| 2026-05-06 20:55 | 19.37217 | -48.11787 | 40074 ft | 470 kts | 214° |
| 2026-05-06 20:56 | 19.31606 | -48.15428 | 40075 ft | 471 kts | 214° |
| 2026-05-06 20:56 | 19.26030 | -48.19043 | 40074 ft | 471 kts | 214° |
| 2026-05-06 20:57 | 19.20443 | -48.22662 | 40075 ft | 471 kts | 214° |
| 2026-05-06 20:57 | 19.14834 | -48.26293 | 40074 ft | 470 kts | 214° |
| 2026-05-06 20:58 | 19.09266 | -48.29895 | 40074 ft | 470 kts | 214° |
| 2026-05-06 20:58 | 19.03663 | -48.33516 | 40074 ft | 469 kts | 214° |
| 2026-05-06 20:59 | 18.98082 | -48.37121 | 40074 ft | 470 kts | 214° |
| 2026-05-06 20:59 | 18.92472 | -48.40741 | 40070 ft | 471 kts | 214° |
| 2026-05-06 21:00 | 18.86886 | -48.44342 | 40071 ft | 471 kts | 214° |
| 2026-05-06 21:00 | 18.81246 | -48.47975 | 40066 ft | 471 kts | 214° |
| 2026-05-06 21:01 | 18.75651 | -48.51577 | 40067 ft | 469 kts | 214° |
| 2026-05-06 21:01 | 18.70058 | -48.55175 | 40066 ft | 468 kts | 214° |
| 2026-05-06 21:02 | 18.64477 | -48.58762 | 40063 ft | 470 kts | 214° |
| 2026-05-06 21:02 | 18.58931 | -48.62324 | 40062 ft | 469 kts | 214° |
| 2026-05-06 21:03 | 18.53343 | -48.65910 | 40073 ft | 468 kts | 213° |
| 2026-05-06 21:03 | 18.47768 | -48.69485 | 40075 ft | 467 kts | 213° |
| 2026-05-06 21:04 | 18.42221 | -48.73039 | 40074 ft | 467 kts | 213° |
| 2026-05-06 21:04 | 18.36657 | -48.76602 | 40075 ft | 467 kts | 213° |
| 2026-05-06 21:05 | 18.31123 | -48.80141 | 40075 ft | 467 kts | 213° |
| 2026-05-06 21:05 | 18.25526 | -48.83720 | 40073 ft | 466 kts | 213° |
| 2026-05-06 21:06 | 18.19986 | -48.87259 | 40073 ft | 466 kts | 213° |
| 2026-05-06 21:06 | 18.14446 | -48.90795 | 40075 ft | 466 kts | 213° |
| 2026-05-06 21:07 | 18.08885 | -48.94342 | 40065 ft | 466 kts | 213° |
| 2026-05-06 21:07 | 18.03334 | -48.97880 | 40058 ft | 467 kts | 213° |
| 2026-05-06 21:08 | 17.94625 | -49.02741 | 40055 ft | 469 kts | 208° |
| 2026-05-06 21:08 | 17.70965 | -49.14682 | 40213 ft | 470 kts | 208° |
| 2026-05-06 21:08 | 17.59111 | -49.20650 | 39969 ft | 470 kts | 208° |
| 2026-05-06 21:09 | 17.47374 | -49.26552 | 39996 ft | 470 kts | 208° |
| 2026-05-06 21:09 | 17.35564 | -49.32485 | 40270 ft | 468 kts | 208° |
| 2026-05-06 21:09 | 17.23696 | -49.38440 | 39703 ft | 472 kts | 208° |
| 2026-05-06 21:09 | 17.11929 | -49.44334 | 40475 ft | 469 kts | 208° |
| 2026-05-06 21:10 | 17.00096 | -49.50255 | 39631 ft | 472 kts | 208° |
| 2026-05-06 21:10 | 16.88235 | -49.56179 | 40440 ft | 467 kts | 208° |
| 2026-05-06 21:10 | 16.76419 | -49.62075 | 39771 ft | 471 kts | 208° |
| 2026-05-06 21:10 | 16.64632 | -49.67947 | 40225 ft | 471 kts | 207° |
| 2026-05-06 21:11 | 16.52676 | -49.73896 | 40045 ft | 472 kts | 207° |
| 2026-05-06 21:11 | 16.40899 | -49.79746 | 39943 ft | 472 kts | 207° |
| 2026-05-06 21:11 | 16.29150 | -49.85574 | 40313 ft | 466 kts | 207° |
| 2026-05-06 21:11 | 16.17237 | -49.91478 | 39684 ft | 471 kts | 207° |
| 2026-05-06 21:12 | 16.05518 | -49.97277 | 40509 ft | 469 kts | 207° |
| 2026-05-06 21:12 | 15.93566 | -50.03127 | 39656 ft | 476 kts | 206° |
| 2026-05-06 21:12 | 15.81606 | -50.08732 | 40445 ft | 472 kts | 206° |
| 2026-05-06 21:12 | 15.69519 | -50.14398 | 39768 ft | 471 kts | 206° |
| 2026-05-06 21:13 | 15.57749 | -50.19923 | 40230 ft | 468 kts | 206° |
| 2026-05-06 21:13 | 15.45801 | -50.25534 | 40053 ft | 470 kts | 206° |
| 2026-05-06 21:13 | 15.33870 | -50.31132 | 39900 ft | 474 kts | 206° |
| 2026-05-06 21:13 | 15.21704 | -50.36833 | 40351 ft | 471 kts | 205° |
| 2026-05-06 21:14 | 15.09823 | -50.42394 | 39647 ft | 471 kts | 205° |
| 2026-05-06 21:14 | 14.98031 | -50.47906 | 40474 ft | 462 kts | 205° |
| 2026-05-06 21:14 | 14.86210 | -50.53428 | 39615 ft | 468 kts | 205° |
| 2026-05-06 21:14 | 14.74321 | -50.58972 | 40442 ft | 467 kts | 205° |
| 2026-05-06 21:15 | 14.62455 | -50.64501 | 39764 ft | 472 kts | 205° |
| 2026-05-06 21:15 | 14.50361 | -50.70127 | 40188 ft | 471 kts | 205° |
| 2026-05-06 21:15 | 14.38489 | -50.75644 | 40049 ft | 468 kts | 205° |
| 2026-05-06 21:15 | 14.26570 | -50.81176 | 39866 ft | 469 kts | 205° |
| 2026-05-06 21:16 | 14.14672 | -50.86694 | 40375 ft | 469 kts | 205° |
| 2026-05-06 21:16 | 14.02765 | -50.92209 | 39653 ft | 475 kts | 205° |
| 2026-05-06 21:16 | 13.90758 | -50.97762 | 40489 ft | 471 kts | 205° |
| 2026-05-06 21:16 | 13.78722 | -51.03323 | 39624 ft | 471 kts | 205° |
| 2026-05-06 21:17 | 13.66795 | -51.08826 | 40387 ft | 464 kts | 205° |
| 2026-05-06 21:17 | 13.54941 | -51.14292 | 39808 ft | 468 kts | 205° |
| 2026-05-06 21:17 | 13.43005 | -51.19789 | 40125 ft | 470 kts | 205° |
| 2026-05-06 21:18 | 13.19167 | -51.30749 | 39811 ft | 472 kts | 205° |
| 2026-05-06 21:18 | 13.07168 | -51.36255 | 40367 ft | 466 kts | 206° |
| 2026-05-06 21:18 | 12.95195 | -51.41746 | 39620 ft | 471 kts | 205° |
| 2026-05-06 21:18 | 12.83279 | -51.47204 | 40462 ft | 470 kts | 206° |
| 2026-05-06 21:19 | 12.71227 | -51.52720 | 39658 ft | 475 kts | 206° |
| 2026-05-06 21:19 | 12.59256 | -51.58190 | 40281 ft | 471 kts | 206° |
| 2026-05-06 21:19 | 12.47208 | -51.63691 | 39911 ft | 468 kts | 206° |
| 2026-05-06 21:20 | 12.23464 | -51.74517 | 40279 ft | 468 kts | 206° |
| 2026-05-06 21:20 | 12.15462 | -51.78161 | 40146 ft | 471 kts | 206° |
| 2026-05-06 21:20 | 12.02632 | -51.83998 | 40138 ft | 469 kts | 206° |
| 2026-05-06 21:20 | 11.99618 | -51.85368 | 39993 ft | 470 kts | 206° |
| 2026-05-06 21:21 | 11.96634 | -51.86724 | 40010 ft | 466 kts | 205° |
| 2026-05-06 21:21 | 11.90671 | -51.89433 | 40013 ft | 468 kts | 206° |
| 2026-05-06 21:22 | 11.84730 | -51.92130 | 40012 ft | 467 kts | 206° |
| 2026-05-06 21:22 | 11.78762 | -51.94839 | 40013 ft | 467 kts | 206° |
| 2026-05-06 21:23 | 11.72807 | -51.97541 | 40012 ft | 467 kts | 206° |
| 2026-05-06 21:23 | 11.66882 | -52.00227 | 40013 ft | 467 kts | 206° |
| 2026-05-06 21:24 | 11.60910 | -52.02935 | 40009 ft | 467 kts | 206° |
| 2026-05-06 21:24 | 11.54996 | -52.05614 | 40013 ft | 466 kts | 206° |
| 2026-05-06 21:25 | 11.49031 | -52.08315 | 40012 ft | 466 kts | 206° |
| 2026-05-06 21:25 | 11.43120 | -52.10990 | 40008 ft | 465 kts | 206° |
| 2026-05-06 21:26 | 11.37188 | -52.13675 | 40004 ft | 465 kts | 206° |
| 2026-05-06 21:26 | 11.31259 | -52.16356 | 39998 ft | 465 kts | 206° |
| 2026-05-06 21:27 | 11.25319 | -52.19041 | 39998 ft | 464 kts | 206° |
| 2026-05-06 21:27 | 11.19405 | -52.21713 | 39996 ft | 465 kts | 206° |
| 2026-05-06 21:28 | 11.13515 | -52.24373 | 39993 ft | 463 kts | 206° |
| 2026-05-06 21:28 | 11.07623 | -52.27033 | 39991 ft | 463 kts | 206° |
| 2026-05-06 21:29 | 11.01748 | -52.29683 | 39987 ft | 461 kts | 206° |
| 2026-05-06 21:29 | 10.95820 | -52.32357 | 39991 ft | 463 kts | 206° |
| 2026-05-06 21:30 | 10.89963 | -52.34997 | 39989 ft | 460 kts | 206° |
| 2026-05-06 21:30 | 10.84089 | -52.37645 | 39989 ft | 460 kts | 206° |
| 2026-05-06 21:31 | 10.78231 | -52.40283 | 39989 ft | 459 kts | 206° |
| 2026-05-06 21:31 | 10.72385 | -52.42915 | 39987 ft | 459 kts | 206° |
| 2026-05-06 21:32 | 10.66502 | -52.45563 | 39990 ft | 460 kts | 206° |
| 2026-05-06 21:32 | 10.57748 | -52.49501 | 39989 ft | 459 kts | 206° |
| 2026-05-06 21:33 | 10.51885 | -52.52137 | 39989 ft | 460 kts | 206° |
| 2026-05-06 21:33 | 10.46054 | -52.54757 | 39989 ft | 459 kts | 206° |
| 2026-05-06 21:34 | 10.40181 | -52.57395 | 39990 ft | 459 kts | 206° |
| 2026-05-06 21:34 | 10.34323 | -52.60025 | 39989 ft | 459 kts | 206° |
| 2026-05-06 21:35 | 10.28496 | -52.62642 | 39992 ft | 460 kts | 206° |
| 2026-05-06 21:35 | 10.22617 | -52.65280 | 39989 ft | 458 kts | 206° |
| 2026-05-06 21:36 | 10.16816 | -52.67883 | 39994 ft | 459 kts | 206° |
| 2026-05-06 21:36 | 10.10915 | -52.70527 | 39993 ft | 458 kts | 206° |
| 2026-05-06 21:37 | 10.05080 | -52.73142 | 39994 ft | 459 kts | 205° |
| 2026-05-06 21:37 | 9.99227 | -52.75763 | 39991 ft | 459 kts | 206° |
| 2026-05-06 21:38 | 9.93331 | -52.78403 | 39990 ft | 459 kts | 205° |
| 2026-05-06 21:38 | 9.87498 | -52.81014 | 39992 ft | 459 kts | 206° |
| 2026-05-06 21:39 | 9.81614 | -52.83647 | 39989 ft | 461 kts | 206° |
| 2026-05-06 21:39 | 9.75728 | -52.86279 | 39988 ft | 460 kts | 205° |
| 2026-05-06 21:40 | 9.69874 | -52.88896 | 39990 ft | 460 kts | 205° |
| 2026-05-06 21:40 | 9.63983 | -52.91528 | 39986 ft | 461 kts | 205° |
| 2026-05-06 21:41 | 9.58097 | -52.94157 | 39984 ft | 461 kts | 205° |
| 2026-05-06 21:41 | 9.52234 | -52.96775 | 39985 ft | 461 kts | 205° |
| 2026-05-06 21:42 | 9.46317 | -52.99416 | 39980 ft | 462 kts | 205° |
| 2026-05-06 21:42 | 9.40494 | -53.02242 | 39978 ft | 461 kts | 208° |
| 2026-05-06 21:43 | 9.34795 | -53.05221 | 39980 ft | 461 kts | 208° |
| 2026-05-06 21:43 | 9.29092 | -53.08183 | 39975 ft | 462 kts | 208° |
| 2026-05-06 21:44 | 9.23358 | -53.11149 | 39972 ft | 462 kts | 208° |
| 2026-05-06 21:44 | 9.17652 | -53.14093 | 39973 ft | 462 kts | 208° |
| 2026-05-06 21:45 | 9.11904 | -53.17056 | 39973 ft | 462 kts | 208° |
| 2026-05-06 21:45 | 9.06158 | -53.20014 | 39971 ft | 462 kts | 208° |
| 2026-05-06 21:46 | 9.00444 | -53.22956 | 39971 ft | 463 kts | 208° |
| 2026-05-06 21:46 | 8.94647 | -53.25940 | 39971 ft | 463 kts | 208° |
| 2026-05-06 21:47 | 8.88917 | -53.28889 | 39978 ft | 462 kts | 208° |
| 2026-05-06 21:47 | 8.83188 | -53.31836 | 39980 ft | 463 kts | 208° |
| 2026-05-06 21:48 | 8.77422 | -53.34800 | 39979 ft | 464 kts | 208° |
| 2026-05-06 21:48 | 8.71670 | -53.37754 | 39981 ft | 464 kts | 208° |
| 2026-05-06 21:49 | 8.65897 | -53.40716 | 39977 ft | 464 kts | 208° |
| 2026-05-06 21:49 | 8.60094 | -53.43693 | 39977 ft | 464 kts | 208° |
| 2026-05-06 21:50 | 8.54387 | -53.46624 | 39977 ft | 464 kts | 208° |
| 2026-05-06 21:50 | 8.48596 | -53.49596 | 39978 ft | 464 kts | 208° |
| 2026-05-06 21:51 | 8.42806 | -53.52566 | 39974 ft | 464 kts | 208° |
| 2026-05-06 21:51 | 8.37053 | -53.55515 | 39977 ft | 465 kts | 208° |
| 2026-05-06 21:52 | 8.31247 | -53.58491 | 39972 ft | 465 kts | 208° |
| 2026-05-06 21:52 | 8.25506 | -53.61432 | 39972 ft | 465 kts | 208° |
| 2026-05-06 21:53 | 8.19721 | -53.64395 | 39970 ft | 466 kts | 208° |
| 2026-05-06 21:53 | 8.13924 | -53.67363 | 39973 ft | 465 kts | 208° |
| 2026-05-06 21:54 | 8.08126 | -53.70332 | 39974 ft | 466 kts | 208° |
| 2026-05-06 21:54 | 8.02329 | -53.73293 | 39970 ft | 466 kts | 208° |
| 2026-05-06 21:55 | 7.96539 | -53.76250 | 39972 ft | 465 kts | 208° |
| 2026-05-06 21:55 | 7.90754 | -53.79205 | 39969 ft | 466 kts | 208° |
| 2026-05-06 21:56 | 7.84961 | -53.82165 | 39970 ft | 466 kts | 208° |
| 2026-05-06 21:56 | 7.79181 | -53.85118 | 39967 ft | 466 kts | 208° |
| 2026-05-06 21:57 | 7.73353 | -53.88096 | 39966 ft | 466 kts | 208° |
| 2026-05-06 21:57 | 7.67574 | -53.91050 | 39965 ft | 466 kts | 208° |
| 2026-05-06 21:58 | 7.61755 | -53.94024 | 39961 ft | 467 kts | 208° |
| 2026-05-06 21:58 | 7.55957 | -53.96986 | 39966 ft | 467 kts | 208° |
| 2026-05-06 21:59 | 7.50200 | -53.99926 | 39462 ft | 463 kts | 208° |
| 2026-05-06 21:59 | 7.47363 | -54.01449 | 38903 ft | 465 kts | 211° |
| 2026-05-06 21:59 | 7.44534 | -54.03058 | 38473 ft | 466 kts | 211° |
| 2026-05-06 22:00 | 7.41716 | -54.04658 | 38170 ft | 466 kts | 210° |
| 2026-05-06 22:00 | 7.38858 | -54.06274 | 37933 ft | 465 kts | 210° |
| 2026-05-06 22:00 | 7.36056 | -54.07856 | 37742 ft | 464 kts | 210° |
| 2026-05-06 22:00 | 7.33209 | -54.09462 | 37486 ft | 464 kts | 210° |
| 2026-05-06 22:01 | 7.30388 | -54.11053 | 37141 ft | 465 kts | 210° |
| 2026-05-06 22:01 | 7.27542 | -54.12658 | 36872 ft | 466 kts | 210° |
| 2026-05-06 22:01 | 7.24739 | -54.14237 | 36649 ft | 465 kts | 210° |
| 2026-05-06 22:01 | 7.21882 | -54.15846 | 36403 ft | 466 kts | 210° |
| 2026-05-06 22:02 | 7.19072 | -54.17429 | 36136 ft | 467 kts | 210° |
| 2026-05-06 22:02 | 7.16228 | -54.19030 | 35863 ft | 468 kts | 210° |
| 2026-05-06 22:02 | 7.13372 | -54.20638 | 35635 ft | 468 kts | 210° |
| 2026-05-06 22:02 | 7.10527 | -54.22239 | 35425 ft | 468 kts | 210° |
| 2026-05-06 22:03 | 7.07693 | -54.23833 | 35166 ft | 468 kts | 210° |
| 2026-05-06 22:03 | 7.04839 | -54.25439 | 34921 ft | 469 kts | 210° |
| 2026-05-06 22:03 | 7.01973 | -54.27051 | 34654 ft | 470 kts | 210° |
| 2026-05-06 22:03 | 6.99119 | -54.28657 | 34375 ft | 471 kts | 210° |
| 2026-05-06 22:04 | 6.96266 | -54.30261 | 34117 ft | 472 kts | 210° |
| 2026-05-06 22:04 | 6.93383 | -54.31882 | 33896 ft | 472 kts | 210° |
| 2026-05-06 22:04 | 6.90510 | -54.33497 | 33632 ft | 473 kts | 210° |
| 2026-05-06 22:04 | 6.87630 | -54.35116 | 33370 ft | 474 kts | 210° |
| 2026-05-06 22:05 | 6.84724 | -54.36750 | 33139 ft | 474 kts | 210° |
| 2026-05-06 22:05 | 6.81849 | -54.38366 | 32611 ft | 480 kts | 210° |
| 2026-05-06 22:05 | 6.78907 | -54.40019 | 31942 ft | 490 kts | 209° |
| 2026-05-06 22:05 | 6.75906 | -54.41705 | 31586 ft | 491 kts | 209° |
| 2026-05-06 22:06 | 6.70002 | -54.45022 | 31479 ft | 483 kts | 209° |
| 2026-05-06 22:06 | 6.67067 | -54.46670 | 31325 ft | 482 kts | 209° |
| 2026-05-06 22:06 | 6.64138 | -54.48314 | 30980 ft | 478 kts | 209° |
| 2026-05-06 22:07 | 6.61220 | -54.49953 | 30354 ft | 474 kts | 208° |
| 2026-05-06 22:07 | 6.58362 | -54.51557 | 29732 ft | 470 kts | 208° |
| 2026-05-06 22:07 | 6.55531 | -54.53146 | 29135 ft | 466 kts | 208° |
| 2026-05-06 22:07 | 6.52696 | -54.54737 | 28557 ft | 462 kts | 208° |
| 2026-05-06 22:08 | 6.49904 | -54.56304 | 28021 ft | 458 kts | 208° |
| 2026-05-06 22:08 | 6.47120 | -54.57865 | 27457 ft | 456 kts | 208° |
| 2026-05-06 22:08 | 6.44360 | -54.59414 | 26924 ft | 453 kts | 208° |
| 2026-05-06 22:08 | 6.41651 | -54.60933 | 26399 ft | 450 kts | 208° |
| 2026-05-06 22:09 | 6.38908 | -54.62471 | 25882 ft | 448 kts | 208° |
| 2026-05-06 22:09 | 6.36164 | -54.64009 | 25515 ft | 448 kts | 208° |
| 2026-05-06 22:09 | 6.33453 | -54.65530 | 25119 ft | 444 kts | 208° |
| 2026-05-06 22:09 | 6.30782 | -54.67027 | 24667 ft | 442 kts | 208° |
| 2026-05-06 22:10 | 6.28100 | -54.68530 | 24229 ft | 440 kts | 209° |
| 2026-05-06 22:10 | 6.25414 | -54.70036 | 23793 ft | 438 kts | 209° |
| 2026-05-06 22:10 | 6.22771 | -54.71516 | 23385 ft | 436 kts | 209° |
| 2026-05-06 22:10 | 6.20094 | -54.73016 | 23011 ft | 434 kts | 209° |
| 2026-05-06 22:11 | 6.17451 | -54.74497 | 22543 ft | 434 kts | 209° |
| 2026-05-06 22:11 | 6.14852 | -54.75952 | 21970 ft | 430 kts | 209° |
| 2026-05-06 22:11 | 6.12239 | -54.77417 | 21397 ft | 428 kts | 209° |
| 2026-05-06 22:11 | 6.09633 | -54.78876 | 20818 ft | 425 kts | 209° |
| 2026-05-06 22:12 | 6.07067 | -54.80313 | 20246 ft | 424 kts | 209° |
| 2026-05-06 22:12 | 6.04515 | -54.81749 | 19675 ft | 416 kts | 211° |
| 2026-05-06 22:12 | 6.02176 | -54.83427 | 19093 ft | 401 kts | 221° |
| 2026-05-06 22:12 | 6.00288 | -54.85406 | 18529 ft | 388 kts | 231° |
| 2026-05-06 22:13 | 5.98663 | -54.87531 | 17962 ft | 377 kts | 233° |
| 2026-05-06 22:13 | 5.97116 | -54.89601 | 17397 ft | 368 kts | 233° |
| 2026-05-06 22:13 | 5.95591 | -54.91649 | 16835 ft | 360 kts | 233° |
| 2026-05-06 22:13 | 5.94125 | -54.93624 | 16281 ft | 353 kts | 233° |
| 2026-05-06 22:14 | 5.92675 | -54.95585 | 15714 ft | 347 kts | 232° |
| 2026-05-06 22:14 | 5.91244 | -54.97524 | 15141 ft | 342 kts | 232° |
| 2026-05-06 22:14 | 5.89832 | -54.99439 | 14571 ft | 338 kts | 232° |
| 2026-05-06 22:14 | 5.88449 | -55.01318 | 13981 ft | 334 kts | 232° |
| 2026-05-06 22:15 | 5.87091 | -55.03163 | 13397 ft | 331 kts | 232° |
| 2026-05-06 22:15 | 5.85721 | -55.05026 | 12795 ft | 327 kts | 232° |
| 2026-05-06 22:15 | 5.84374 | -55.06857 | 12215 ft | 325 kts | 231° |
| 2026-05-06 22:15 | 5.83038 | -55.08672 | 11639 ft | 323 kts | 231° |
| 2026-05-06 22:16 | 5.81706 | -55.10483 | 11025 ft | 321 kts | 231° |
| 2026-05-06 22:16 | 5.80386 | -55.12276 | 10438 ft | 319 kts | 231° |
| 2026-05-06 22:16 | 5.79075 | -55.14057 | 9819 ft | 319 kts | 231° |
| 2026-05-06 22:16 | 5.77764 | -55.15838 | 9183 ft | 319 kts | 231° |
| 2026-05-06 22:17 | 5.76455 | -55.17616 | 8572 ft | 318 kts | 231° |
| 2026-05-06 22:17 | 5.75147 | -55.19394 | 7956 ft | 316 kts | 231° |
| 2026-05-06 22:17 | 5.73838 | -55.21172 | 7380 ft | 313 kts | 232° |
| 2026-05-06 22:17 | 5.72565 | -55.22902 | 6894 ft | 307 kts | 232° |
| 2026-05-06 22:18 | 5.71310 | -55.24606 | 6424 ft | 302 kts | 232° |
| 2026-05-06 22:18 | 5.70058 | -55.26306 | 5952 ft | 297 kts | 232° |
| 2026-05-06 22:18 | 5.68854 | -55.27941 | 5489 ft | 293 kts | 232° |
| 2026-05-06 22:18 | 5.67645 | -55.29583 | 5017 ft | 290 kts | 232° |
| 2026-05-06 22:19 | 5.66455 | -55.31198 | 4549 ft | 287 kts | 232° |
| 2026-05-06 22:19 | 5.65272 | -55.32804 | 4079 ft | 285 kts | 232° |
| 2026-05-06 22:19 | 5.64088 | -55.34412 | 3603 ft | 283 kts | 232° |
| 2026-05-06 22:19 | 5.62929 | -55.35983 | 3170 ft | 280 kts | 233° |
| 2026-05-06 22:20 | 5.61775 | -55.37550 | 3019 ft | 274 kts | 233° |
| 2026-05-06 22:20 | 5.60644 | -55.39085 | 2997 ft | 275 kts | 233° |
| 2026-05-06 22:20 | 5.59509 | -55.40626 | 2998 ft | 273 kts | 233° |
| 2026-05-06 22:20 | 5.58369 | -55.42172 | 3004 ft | 276 kts | 233° |
| 2026-05-06 22:21 | 5.57116 | -55.43598 | 2992 ft | 272 kts | 215° |
| 2026-05-06 22:21 | 5.56407 | -55.44038 | 2986 ft | 271 kts | 202° |
| 2026-05-06 22:21 | 5.55012 | -55.44406 | 2986 ft | 265 kts | 180° |
| 2026-05-06 22:21 | 5.53265 | -55.44173 | 2965 ft | 248 kts | 154° |
| 2026-05-06 22:22 | 5.51822 | -55.43315 | 2944 ft | 230 kts | 137° |
| 2026-05-06 22:22 | 5.50616 | -55.42319 | 2937 ft | 217 kts | 133° |
| 2026-05-06 22:22 | 5.49554 | -55.41311 | 2938 ft | 204 kts | 130° |
| 2026-05-06 22:22 | 5.48588 | -55.40337 | 2934 ft | 190 kts | 129° |
| 2026-05-06 22:23 | 5.47675 | -55.39399 | 2822 ft | 183 kts | 129° |
| 2026-05-06 22:23 | 5.46795 | -55.38493 | 2571 ft | 184 kts | 129° |
| 2026-05-06 22:23 | 5.45886 | -55.37557 | 2312 ft | 186 kts | 128° |
| 2026-05-06 22:23 | 5.45236 | -55.36499 | 2071 ft | 177 kts | 98° |
| 2026-05-06 22:24 | 5.45149 | -55.35300 | 2000 ft | 165 kts | 86° |
| 2026-05-06 22:24 | 5.45171 | -55.34179 | 1992 ft | 162 kts | 85° |
| 2026-05-06 22:24 | 5.45183 | -55.33028 | 2001 ft | 164 kts | 86° |
| 2026-05-06 22:24 | 5.45189 | -55.31896 | 1995 ft | 163 kts | 86° |
| 2026-05-06 22:25 | 5.45196 | -55.30757 | 1982 ft | 162 kts | 86° |
| 2026-05-06 22:25 | 5.45203 | -55.29595 | 1777 ft | 165 kts | 86° |
| 2026-05-06 22:25 | 5.45210 | -55.28474 | 1554 ft | 158 kts | 86° |
| 2026-05-06 22:25 | 5.45216 | -55.27417 | 1373 ft | 144 kts | 86° |
| 2026-05-06 22:26 | 5.45221 | -55.26431 | 1237 ft | 139 kts | 85° |
| 2026-05-06 22:26 | 5.45229 | -55.25456 | 1140 ft | 143 kts | 86° |
| 2026-05-06 22:26 | 5.45238 | -55.24477 | 936 ft | 139 kts | 86° |
| 2026-05-06 22:26 | 5.45243 | -55.23495 | 729 ft | 142 kts | 86° |
| 2026-05-06 22:27 | 5.45252 | -55.22506 | 504 ft | 142 kts | 85° |
| 2026-05-06 22:27 | 5.45263 | -55.21510 | 340 ft | 145 kts | 86° |
| 2026-05-06 22:27 | 5.45269 | -55.20517 | 138 ft | 143 kts | 86° |
| 2026-05-06 22:27 | 5.45276 | -55.19536 | 62 ft | 129 kts | 87° |
| 2026-05-06 22:28 | 5.45280 | -55.18762 | 65 ft | 93 kts | 90° |
| 2026-05-06 22:28 | 5.45281 | -55.18228 | 65 ft | 57 kts | 89° |
| 2026-05-06 22:28 | 5.45282 | -55.17856 | 65 ft | 51 kts | 90° |
| 2026-05-06 22:28 | 5.45282 | -55.17561 | 66 ft | 21 kts | 89° |
| 2026-05-06 22:29 | 5.45300 | -55.17480 | 66 ft | 5 kts | 69° |
| 2026-05-06 22:29 | 5.45288 | -55.17464 | 66 ft | 2 kts | 194° |
| 2026-05-06 22:29 | 5.45283 | -55.17480 | 66 ft | 4 kts | 270° |
| 2026-05-06 22:29 | 5.45284 | -55.17523 | 66 ft | 8 kts | 271° |
| 2026-05-06 22:30 | 5.45284 | -55.17607 | 66 ft | 15 kts | 269° |
| 2026-05-06 22:30 | 5.45282 | -55.17739 | 66 ft | 21 kts | 270° |
| 2026-05-06 22:30 | 5.45282 | -55.17909 | 65 ft | 26 kts | 270° |
| 2026-05-06 22:30 | 5.45281 | -55.18097 | 65 ft | 27 kts | 269° |
| 2026-05-06 22:31 | 5.45280 | -55.18292 | 65 ft | 25 kts | 270° |
| 2026-05-06 22:31 | 5.45282 | -55.18477 | 65 ft | 27 kts | 270° |
| 2026-05-06 22:31 | 5.45279 | -55.18673 | 65 ft | 26 kts | 270° |
| 2026-05-06 22:31 | 5.45278 | -55.18866 | 65 ft | 27 kts | 269° |
| 2026-05-06 22:32 | 5.45277 | -55.19049 | 62 ft | 24 kts | 270° |
| 2026-05-06 22:32 | 5.45278 | -55.19226 | 62 ft | 26 kts | 271° |
| 2026-05-06 22:32 | 5.45277 | -55.19415 | 62 ft | 24 kts | 269° |
| 2026-05-06 22:32 | 5.45276 | -55.19577 | 62 ft | 23 kts | 270° |
| 2026-05-06 22:33 | 5.45277 | -55.19670 | 62 ft | 8 kts | 277° |
| 2026-05-06 22:33 | 5.45319 | -55.19722 | 62 ft | 11 kts | 341° |
| 2026-05-06 22:33 | 5.45404 | -55.19731 | 62 ft | 12 kts | 347° |
| 2026-05-06 22:33 | 5.45453 | -55.19783 | 62 ft | 5 kts | 297° |
| 2026-05-06 22:34 | 5.45489 | -55.19805 | 62 ft | 7 kts | 353° |
| 2026-05-06 22:34 | 5.45522 | -55.19805 | 62 ft | 0 kts | 1° |